<?xml version="1.0" encoding="UTF-8" standalone="no" ?>
<gpx xmlns="http://www.topografix.com/GPX/1/1" xmlns:xsi="http://www.w3.org/2001/XMLSchema-instance" xsi:schemaLocation="http://www.topografix.com/GPX/1/1 http://www.topografix.com/GPX/1/1/gpx.xsd" version="1.1" creator="VisuGPX - https://www.visugpx.com">
  <metadata>
    <name>RSPFY-bois de Rochefort</name>
    <desc><![CDATA[marche partant du carrefour de Luynes passant par le le Fonds de Bullion, le carrefour des Jumelles et le point de vue sur la vallée (161m).]]></desc>
  </metadata>
  <trk>
    <name><![CDATA[2024-10-31 08:56]]></name>
    <desc><![CDATA[<p>Heure de départ: 08:56 31 oct. 2024<br/>Heure d'arrivée: 11:34 31 oct. 2024<br/>Distance: 11,9 km (02:37)<br/>Temps déplacement: 02:17<br/>Vitesse moyenne: 4,54 km/h<br/>Vitesse moyenne mouv.: 5,21 km/h<br/>Vitesse Max.: 11,42 km/h<br/>Altitude minimale: 97 m<br/>Altitude maximale: 160 m<br/>Vitesse de montée: 411,5 m/h<br/>Vitesse de descente: -382,5 m/h<br/>Gain d'altitude: 521 m<br/>Perte d'altitude: -519 m<br/>Temps de montée: 01:16<br/>Temps de descente: 01:21<br/></p><hr align="center" width="480" style="height: 2px; width: 517px"/>]]></desc>
    <trkseg>
      <trkpt lat="48.59182" lon="1.96603">
        <ele>116.6</ele>
        <time>2024-10-31T07:56:38Z</time>
      </trkpt>
      <trkpt lat="48.59192" lon="1.96601">
        <ele>116.9</ele>
        <time>2024-10-31T07:57:47Z</time>
      </trkpt>
      <trkpt lat="48.59201" lon="1.96599">
        <ele>117.5</ele>
        <time>2024-10-31T07:57:54Z</time>
      </trkpt>
      <trkpt lat="48.59211" lon="1.96598">
        <ele>118.2</ele>
        <time>2024-10-31T07:58:01Z</time>
      </trkpt>
      <trkpt lat="48.5922" lon="1.96597">
        <ele>118.9</ele>
        <time>2024-10-31T07:58:09Z</time>
      </trkpt>
      <trkpt lat="48.59231" lon="1.96598">
        <ele>119.8</ele>
        <time>2024-10-31T07:58:19Z</time>
      </trkpt>
      <trkpt lat="48.59239" lon="1.96605">
        <ele>120.7</ele>
        <time>2024-10-31T07:58:27Z</time>
      </trkpt>
      <trkpt lat="48.59248" lon="1.96612">
        <ele>121.8</ele>
        <time>2024-10-31T07:58:34Z</time>
      </trkpt>
      <trkpt lat="48.59256" lon="1.96618">
        <ele>122.9</ele>
        <time>2024-10-31T07:58:40Z</time>
      </trkpt>
      <trkpt lat="48.59264" lon="1.96626">
        <ele>124.1</ele>
        <time>2024-10-31T07:58:49Z</time>
      </trkpt>
      <trkpt lat="48.59273" lon="1.96633">
        <ele>125.3</ele>
        <time>2024-10-31T07:58:57Z</time>
      </trkpt>
      <trkpt lat="48.59282" lon="1.96637">
        <ele>126.4</ele>
        <time>2024-10-31T07:59:05Z</time>
      </trkpt>
      <trkpt lat="48.59292" lon="1.96641">
        <ele>127.6</ele>
        <time>2024-10-31T07:59:13Z</time>
      </trkpt>
      <trkpt lat="48.59301" lon="1.96645">
        <ele>128.6</ele>
        <time>2024-10-31T07:59:22Z</time>
      </trkpt>
      <trkpt lat="48.59311" lon="1.96646">
        <ele>129.6</ele>
        <time>2024-10-31T07:59:31Z</time>
      </trkpt>
      <trkpt lat="48.59321" lon="1.96649">
        <ele>130.7</ele>
        <time>2024-10-31T07:59:39Z</time>
      </trkpt>
      <trkpt lat="48.59331" lon="1.96652">
        <ele>131.7</ele>
        <time>2024-10-31T07:59:47Z</time>
      </trkpt>
      <trkpt lat="48.5934" lon="1.96656">
        <ele>133.1</ele>
        <time>2024-10-31T07:59:54Z</time>
      </trkpt>
      <trkpt lat="48.59348" lon="1.96662">
        <ele>134.6</ele>
        <time>2024-10-31T08:00:03Z</time>
      </trkpt>
      <trkpt lat="48.59357" lon="1.96666">
        <ele>136.3</ele>
        <time>2024-10-31T08:00:14Z</time>
      </trkpt>
      <trkpt lat="48.59367" lon="1.96668">
        <ele>137.9</ele>
        <time>2024-10-31T08:00:28Z</time>
      </trkpt>
      <trkpt lat="48.59377" lon="1.96671">
        <ele>139.4</ele>
        <time>2024-10-31T08:00:39Z</time>
      </trkpt>
      <trkpt lat="48.59385" lon="1.96678">
        <ele>140.9</ele>
        <time>2024-10-31T08:00:49Z</time>
      </trkpt>
      <trkpt lat="48.59394" lon="1.9668">
        <ele>141.9</ele>
        <time>2024-10-31T08:00:56Z</time>
      </trkpt>
      <trkpt lat="48.59404" lon="1.96683">
        <ele>142.6</ele>
        <time>2024-10-31T08:01:04Z</time>
      </trkpt>
      <trkpt lat="48.59409" lon="1.9667">
        <ele>142.6</ele>
        <time>2024-10-31T08:01:12Z</time>
      </trkpt>
      <trkpt lat="48.59416" lon="1.96659">
        <ele>142.7</ele>
        <time>2024-10-31T08:01:21Z</time>
      </trkpt>
      <trkpt lat="48.59422" lon="1.96649">
        <ele>142.6</ele>
        <time>2024-10-31T08:01:28Z</time>
      </trkpt>
      <trkpt lat="48.5943" lon="1.96641">
        <ele>142.6</ele>
        <time>2024-10-31T08:01:36Z</time>
      </trkpt>
      <trkpt lat="48.59435" lon="1.96631">
        <ele>142.6</ele>
        <time>2024-10-31T08:01:44Z</time>
      </trkpt>
      <trkpt lat="48.59439" lon="1.96616">
        <ele>142.6</ele>
        <time>2024-10-31T08:01:51Z</time>
      </trkpt>
      <trkpt lat="48.59444" lon="1.96603">
        <ele>142.7</ele>
        <time>2024-10-31T08:01:58Z</time>
      </trkpt>
      <trkpt lat="48.59452" lon="1.96595">
        <ele>143</ele>
        <time>2024-10-31T08:02:07Z</time>
      </trkpt>
      <trkpt lat="48.59458" lon="1.96584">
        <ele>143</ele>
        <time>2024-10-31T08:02:14Z</time>
      </trkpt>
      <trkpt lat="48.59463" lon="1.9657">
        <ele>142.8</ele>
        <time>2024-10-31T08:02:20Z</time>
      </trkpt>
      <trkpt lat="48.59468" lon="1.96557">
        <ele>142.7</ele>
        <time>2024-10-31T08:02:27Z</time>
      </trkpt>
      <trkpt lat="48.59473" lon="1.96546">
        <ele>143.1</ele>
        <time>2024-10-31T08:02:34Z</time>
      </trkpt>
      <trkpt lat="48.59477" lon="1.96532">
        <ele>143.7</ele>
        <time>2024-10-31T08:02:41Z</time>
      </trkpt>
      <trkpt lat="48.59482" lon="1.9652">
        <ele>144.5</ele>
        <time>2024-10-31T08:02:49Z</time>
      </trkpt>
      <trkpt lat="48.59489" lon="1.9651">
        <ele>145.7</ele>
        <time>2024-10-31T08:02:57Z</time>
      </trkpt>
      <trkpt lat="48.59493" lon="1.96497">
        <ele>146.7</ele>
        <time>2024-10-31T08:03:05Z</time>
      </trkpt>
      <trkpt lat="48.59496" lon="1.96483">
        <ele>147.2</ele>
        <time>2024-10-31T08:03:12Z</time>
      </trkpt>
      <trkpt lat="48.59501" lon="1.9647">
        <ele>148.1</ele>
        <time>2024-10-31T08:03:19Z</time>
      </trkpt>
      <trkpt lat="48.59508" lon="1.96459">
        <ele>148.8</ele>
        <time>2024-10-31T08:03:27Z</time>
      </trkpt>
      <trkpt lat="48.59515" lon="1.96448">
        <ele>149.7</ele>
        <time>2024-10-31T08:03:35Z</time>
      </trkpt>
      <trkpt lat="48.59521" lon="1.96437">
        <ele>150.4</ele>
        <time>2024-10-31T08:03:43Z</time>
      </trkpt>
      <trkpt lat="48.59526" lon="1.96425">
        <ele>151</ele>
        <time>2024-10-31T08:03:50Z</time>
      </trkpt>
      <trkpt lat="48.59531" lon="1.96414">
        <ele>151.5</ele>
        <time>2024-10-31T08:03:56Z</time>
      </trkpt>
      <trkpt lat="48.59537" lon="1.96402">
        <ele>152.3</ele>
        <time>2024-10-31T08:04:04Z</time>
      </trkpt>
      <trkpt lat="48.59543" lon="1.96389">
        <ele>153.1</ele>
        <time>2024-10-31T08:04:12Z</time>
      </trkpt>
      <trkpt lat="48.59549" lon="1.96379">
        <ele>153.9</ele>
        <time>2024-10-31T08:04:19Z</time>
      </trkpt>
      <trkpt lat="48.59554" lon="1.96366">
        <ele>154.7</ele>
        <time>2024-10-31T08:04:26Z</time>
      </trkpt>
      <trkpt lat="48.59558" lon="1.96354">
        <ele>154.7</ele>
        <time>2024-10-31T08:04:33Z</time>
      </trkpt>
      <trkpt lat="48.59564" lon="1.96342">
        <ele>154.8</ele>
        <time>2024-10-31T08:04:41Z</time>
      </trkpt>
      <trkpt lat="48.5957" lon="1.96331">
        <ele>154.8</ele>
        <time>2024-10-31T08:04:48Z</time>
      </trkpt>
      <trkpt lat="48.59576" lon="1.96319">
        <ele>155</ele>
        <time>2024-10-31T08:04:55Z</time>
      </trkpt>
      <trkpt lat="48.59581" lon="1.96306">
        <ele>154.7</ele>
        <time>2024-10-31T08:05:02Z</time>
      </trkpt>
      <trkpt lat="48.59586" lon="1.96293">
        <ele>154</ele>
        <time>2024-10-31T08:05:09Z</time>
      </trkpt>
      <trkpt lat="48.59595" lon="1.96292">
        <ele>154.8</ele>
        <time>2024-10-31T08:05:17Z</time>
      </trkpt>
      <trkpt lat="48.59604" lon="1.96299">
        <ele>156.5</ele>
        <time>2024-10-31T08:05:27Z</time>
      </trkpt>
      <trkpt lat="48.59612" lon="1.96307">
        <ele>158.2</ele>
        <time>2024-10-31T08:05:36Z</time>
      </trkpt>
      <trkpt lat="48.59618" lon="1.96318">
        <ele>159.2</ele>
        <time>2024-10-31T08:05:43Z</time>
      </trkpt>
      <trkpt lat="48.59626" lon="1.96328">
        <ele>160.2</ele>
        <time>2024-10-31T08:05:51Z</time>
      </trkpt>
      <trkpt lat="48.59635" lon="1.96334">
        <ele>160.9</ele>
        <time>2024-10-31T08:05:59Z</time>
      </trkpt>
      <trkpt lat="48.59643" lon="1.96342">
        <ele>161</ele>
        <time>2024-10-31T08:06:06Z</time>
      </trkpt>
      <trkpt lat="48.59652" lon="1.96349">
        <ele>161.3</ele>
        <time>2024-10-31T08:06:14Z</time>
      </trkpt>
      <trkpt lat="48.59659" lon="1.96359">
        <ele>161.7</ele>
        <time>2024-10-31T08:06:21Z</time>
      </trkpt>
      <trkpt lat="48.59666" lon="1.96369">
        <ele>162</ele>
        <time>2024-10-31T08:06:28Z</time>
      </trkpt>
      <trkpt lat="48.59675" lon="1.96376">
        <ele>162</ele>
        <time>2024-10-31T08:06:35Z</time>
      </trkpt>
      <trkpt lat="48.59683" lon="1.96383">
        <ele>162</ele>
        <time>2024-10-31T08:06:41Z</time>
      </trkpt>
      <trkpt lat="48.5969" lon="1.96392">
        <ele>162</ele>
        <time>2024-10-31T08:06:49Z</time>
      </trkpt>
      <trkpt lat="48.59697" lon="1.96401">
        <ele>162</ele>
        <time>2024-10-31T08:06:56Z</time>
      </trkpt>
      <trkpt lat="48.59705" lon="1.96409">
        <ele>162</ele>
        <time>2024-10-31T08:07:04Z</time>
      </trkpt>
      <trkpt lat="48.59713" lon="1.96416">
        <ele>162</ele>
        <time>2024-10-31T08:07:11Z</time>
      </trkpt>
      <trkpt lat="48.59722" lon="1.96423">
        <ele>161.8</ele>
        <time>2024-10-31T08:07:17Z</time>
      </trkpt>
      <trkpt lat="48.5973" lon="1.96431">
        <ele>161.5</ele>
        <time>2024-10-31T08:07:23Z</time>
      </trkpt>
      <trkpt lat="48.59738" lon="1.96438">
        <ele>161.2</ele>
        <time>2024-10-31T08:07:29Z</time>
      </trkpt>
      <trkpt lat="48.59746" lon="1.96444">
        <ele>161</ele>
        <time>2024-10-31T08:07:35Z</time>
      </trkpt>
      <trkpt lat="48.59754" lon="1.96452">
        <ele>161</ele>
        <time>2024-10-31T08:07:43Z</time>
      </trkpt>
      <trkpt lat="48.59761" lon="1.96461">
        <ele>160.8</ele>
        <time>2024-10-31T08:07:50Z</time>
      </trkpt>
      <trkpt lat="48.5977" lon="1.96469">
        <ele>160.4</ele>
        <time>2024-10-31T08:07:57Z</time>
      </trkpt>
      <trkpt lat="48.59778" lon="1.96475">
        <ele>160</ele>
        <time>2024-10-31T08:08:05Z</time>
      </trkpt>
      <trkpt lat="48.59787" lon="1.96483">
        <ele>160</ele>
        <time>2024-10-31T08:08:12Z</time>
      </trkpt>
      <trkpt lat="48.59792" lon="1.96494">
        <ele>160</ele>
        <time>2024-10-31T08:08:20Z</time>
      </trkpt>
      <trkpt lat="48.59801" lon="1.96502">
        <ele>159.9</ele>
        <time>2024-10-31T08:08:27Z</time>
      </trkpt>
      <trkpt lat="48.59809" lon="1.96509">
        <ele>159.5</ele>
        <time>2024-10-31T08:08:34Z</time>
      </trkpt>
      <trkpt lat="48.59817" lon="1.96516">
        <ele>158.9</ele>
        <time>2024-10-31T08:08:40Z</time>
      </trkpt>
      <trkpt lat="48.59824" lon="1.96526">
        <ele>158.3</ele>
        <time>2024-10-31T08:08:48Z</time>
      </trkpt>
      <trkpt lat="48.59832" lon="1.96536">
        <ele>158.1</ele>
        <time>2024-10-31T08:08:56Z</time>
      </trkpt>
      <trkpt lat="48.59838" lon="1.96547">
        <ele>157.7</ele>
        <time>2024-10-31T08:09:03Z</time>
      </trkpt>
      <trkpt lat="48.59846" lon="1.96555">
        <ele>157.1</ele>
        <time>2024-10-31T08:09:10Z</time>
      </trkpt>
      <trkpt lat="48.59855" lon="1.96562">
        <ele>156.6</ele>
        <time>2024-10-31T08:09:16Z</time>
      </trkpt>
      <trkpt lat="48.59863" lon="1.9657">
        <ele>156.4</ele>
        <time>2024-10-31T08:09:23Z</time>
      </trkpt>
      <trkpt lat="48.59871" lon="1.96577">
        <ele>155.8</ele>
        <time>2024-10-31T08:09:30Z</time>
      </trkpt>
      <trkpt lat="48.59877" lon="1.96588">
        <ele>155.4</ele>
        <time>2024-10-31T08:09:37Z</time>
      </trkpt>
      <trkpt lat="48.59886" lon="1.96584">
        <ele>154.3</ele>
        <time>2024-10-31T08:09:45Z</time>
      </trkpt>
      <trkpt lat="48.59893" lon="1.96575">
        <ele>152.8</ele>
        <time>2024-10-31T08:09:53Z</time>
      </trkpt>
      <trkpt lat="48.599" lon="1.96564">
        <ele>151.2</ele>
        <time>2024-10-31T08:10:00Z</time>
      </trkpt>
      <trkpt lat="48.59905" lon="1.96551">
        <ele>150.2</ele>
        <time>2024-10-31T08:10:08Z</time>
      </trkpt>
      <trkpt lat="48.59911" lon="1.96539">
        <ele>149.1</ele>
        <time>2024-10-31T08:10:15Z</time>
      </trkpt>
      <trkpt lat="48.59917" lon="1.96528">
        <ele>147.9</ele>
        <time>2024-10-31T08:10:23Z</time>
      </trkpt>
      <trkpt lat="48.59924" lon="1.96517">
        <ele>147.1</ele>
        <time>2024-10-31T08:10:32Z</time>
      </trkpt>
      <trkpt lat="48.59929" lon="1.96505">
        <ele>146.5</ele>
        <time>2024-10-31T08:10:38Z</time>
      </trkpt>
      <trkpt lat="48.59935" lon="1.96491">
        <ele>146.2</ele>
        <time>2024-10-31T08:10:45Z</time>
      </trkpt>
      <trkpt lat="48.59941" lon="1.96479">
        <ele>145.4</ele>
        <time>2024-10-31T08:10:52Z</time>
      </trkpt>
      <trkpt lat="48.59947" lon="1.96468">
        <ele>144.9</ele>
        <time>2024-10-31T08:10:58Z</time>
      </trkpt>
      <trkpt lat="48.59953" lon="1.96456">
        <ele>144.6</ele>
        <time>2024-10-31T08:11:05Z</time>
      </trkpt>
      <trkpt lat="48.59959" lon="1.96443">
        <ele>144.5</ele>
        <time>2024-10-31T08:11:12Z</time>
      </trkpt>
      <trkpt lat="48.59965" lon="1.9643">
        <ele>144.7</ele>
        <time>2024-10-31T08:11:18Z</time>
      </trkpt>
      <trkpt lat="48.5997" lon="1.96417">
        <ele>145.1</ele>
        <time>2024-10-31T08:11:25Z</time>
      </trkpt>
      <trkpt lat="48.59974" lon="1.96405">
        <ele>146.3</ele>
        <time>2024-10-31T08:11:32Z</time>
      </trkpt>
      <trkpt lat="48.5998" lon="1.96392">
        <ele>147.7</ele>
        <time>2024-10-31T08:11:39Z</time>
      </trkpt>
      <trkpt lat="48.59985" lon="1.96379">
        <ele>149</ele>
        <time>2024-10-31T08:11:47Z</time>
      </trkpt>
      <trkpt lat="48.59992" lon="1.9637">
        <ele>150.1</ele>
        <time>2024-10-31T08:11:56Z</time>
      </trkpt>
      <trkpt lat="48.59998" lon="1.96359">
        <ele>151.2</ele>
        <time>2024-10-31T08:12:04Z</time>
      </trkpt>
      <trkpt lat="48.60005" lon="1.96349">
        <ele>152</ele>
        <time>2024-10-31T08:12:12Z</time>
      </trkpt>
      <trkpt lat="48.60009" lon="1.96337">
        <ele>153</ele>
        <time>2024-10-31T08:12:17Z</time>
      </trkpt>
      <trkpt lat="48.60015" lon="1.96324">
        <ele>153.2</ele>
        <time>2024-10-31T08:12:23Z</time>
      </trkpt>
      <trkpt lat="48.60021" lon="1.96311">
        <ele>153.3</ele>
        <time>2024-10-31T08:12:30Z</time>
      </trkpt>
      <trkpt lat="48.60027" lon="1.963">
        <ele>153.2</ele>
        <time>2024-10-31T08:12:38Z</time>
      </trkpt>
      <trkpt lat="48.60031" lon="1.96288">
        <ele>153.2</ele>
        <time>2024-10-31T08:12:45Z</time>
      </trkpt>
      <trkpt lat="48.60037" lon="1.96276">
        <ele>153.1</ele>
        <time>2024-10-31T08:12:52Z</time>
      </trkpt>
      <trkpt lat="48.60045" lon="1.96267">
        <ele>152.8</ele>
        <time>2024-10-31T08:12:59Z</time>
      </trkpt>
      <trkpt lat="48.60052" lon="1.96257">
        <ele>152.8</ele>
        <time>2024-10-31T08:13:07Z</time>
      </trkpt>
      <trkpt lat="48.60058" lon="1.96244">
        <ele>152.5</ele>
        <time>2024-10-31T08:13:15Z</time>
      </trkpt>
      <trkpt lat="48.60061" lon="1.96229">
        <ele>152.1</ele>
        <time>2024-10-31T08:13:22Z</time>
      </trkpt>
      <trkpt lat="48.60063" lon="1.96215">
        <ele>151.5</ele>
        <time>2024-10-31T08:13:35Z</time>
      </trkpt>
      <trkpt lat="48.60067" lon="1.96203">
        <ele>150.5</ele>
        <time>2024-10-31T08:13:47Z</time>
      </trkpt>
      <trkpt lat="48.60074" lon="1.96192">
        <ele>148.9</ele>
        <time>2024-10-31T08:13:57Z</time>
      </trkpt>
      <trkpt lat="48.60081" lon="1.9618">
        <ele>147.3</ele>
        <time>2024-10-31T08:14:05Z</time>
      </trkpt>
      <trkpt lat="48.60087" lon="1.96169">
        <ele>145.7</ele>
        <time>2024-10-31T08:14:12Z</time>
      </trkpt>
      <trkpt lat="48.60091" lon="1.96157">
        <ele>143.8</ele>
        <time>2024-10-31T08:14:21Z</time>
      </trkpt>
      <trkpt lat="48.60098" lon="1.96146">
        <ele>141</ele>
        <time>2024-10-31T08:14:30Z</time>
      </trkpt>
      <trkpt lat="48.60104" lon="1.96136">
        <ele>138</ele>
        <time>2024-10-31T08:14:37Z</time>
      </trkpt>
      <trkpt lat="48.60109" lon="1.96124">
        <ele>135.7</ele>
        <time>2024-10-31T08:14:46Z</time>
      </trkpt>
      <trkpt lat="48.60116" lon="1.96114">
        <ele>133.4</ele>
        <time>2024-10-31T08:14:55Z</time>
      </trkpt>
      <trkpt lat="48.60121" lon="1.96101">
        <ele>131.3</ele>
        <time>2024-10-31T08:15:04Z</time>
      </trkpt>
      <trkpt lat="48.60128" lon="1.96092">
        <ele>128.6</ele>
        <time>2024-10-31T08:15:13Z</time>
      </trkpt>
      <trkpt lat="48.60133" lon="1.96079">
        <ele>126.5</ele>
        <time>2024-10-31T08:15:21Z</time>
      </trkpt>
      <trkpt lat="48.60138" lon="1.96067">
        <ele>123.9</ele>
        <time>2024-10-31T08:15:29Z</time>
      </trkpt>
      <trkpt lat="48.60144" lon="1.96055">
        <ele>123.6</ele>
        <time>2024-10-31T08:15:36Z</time>
      </trkpt>
      <trkpt lat="48.60148" lon="1.96043">
        <ele>123.5</ele>
        <time>2024-10-31T08:15:46Z</time>
      </trkpt>
      <trkpt lat="48.60154" lon="1.96031">
        <ele>123.7</ele>
        <time>2024-10-31T08:15:54Z</time>
      </trkpt>
      <trkpt lat="48.60159" lon="1.96019">
        <ele>123.8</ele>
        <time>2024-10-31T08:16:01Z</time>
      </trkpt>
      <trkpt lat="48.60165" lon="1.96008">
        <ele>124.1</ele>
        <time>2024-10-31T08:16:09Z</time>
      </trkpt>
      <trkpt lat="48.60174" lon="1.96005">
        <ele>125.1</ele>
        <time>2024-10-31T08:16:17Z</time>
      </trkpt>
      <trkpt lat="48.60181" lon="1.95995">
        <ele>124.9</ele>
        <time>2024-10-31T08:16:25Z</time>
      </trkpt>
      <trkpt lat="48.60187" lon="1.95984">
        <ele>124</ele>
        <time>2024-10-31T08:16:33Z</time>
      </trkpt>
      <trkpt lat="48.60196" lon="1.95976">
        <ele>123.6</ele>
        <time>2024-10-31T08:16:40Z</time>
      </trkpt>
      <trkpt lat="48.602" lon="1.95962">
        <ele>122.3</ele>
        <time>2024-10-31T08:16:45Z</time>
      </trkpt>
      <trkpt lat="48.60204" lon="1.95947">
        <ele>120.9</ele>
        <time>2024-10-31T08:16:50Z</time>
      </trkpt>
      <trkpt lat="48.60209" lon="1.95934">
        <ele>119.3</ele>
        <time>2024-10-31T08:16:56Z</time>
      </trkpt>
      <trkpt lat="48.60213" lon="1.95921">
        <ele>117.8</ele>
        <time>2024-10-31T08:17:02Z</time>
      </trkpt>
      <trkpt lat="48.60219" lon="1.9591">
        <ele>116.6</ele>
        <time>2024-10-31T08:17:09Z</time>
      </trkpt>
      <trkpt lat="48.60226" lon="1.95899">
        <ele>115.6</ele>
        <time>2024-10-31T08:17:17Z</time>
      </trkpt>
      <trkpt lat="48.60233" lon="1.95889">
        <ele>114.6</ele>
        <time>2024-10-31T08:17:25Z</time>
      </trkpt>
      <trkpt lat="48.60238" lon="1.95876">
        <ele>114</ele>
        <time>2024-10-31T08:17:33Z</time>
      </trkpt>
      <trkpt lat="48.60243" lon="1.95862">
        <ele>113.3</ele>
        <time>2024-10-31T08:17:40Z</time>
      </trkpt>
      <trkpt lat="48.60247" lon="1.95848">
        <ele>113.1</ele>
        <time>2024-10-31T08:17:46Z</time>
      </trkpt>
      <trkpt lat="48.60252" lon="1.95835">
        <ele>112.9</ele>
        <time>2024-10-31T08:18:04Z</time>
      </trkpt>
      <trkpt lat="48.60257" lon="1.95824">
        <ele>112.4</ele>
        <time>2024-10-31T08:18:11Z</time>
      </trkpt>
      <trkpt lat="48.60262" lon="1.95811">
        <ele>111.8</ele>
        <time>2024-10-31T08:18:17Z</time>
      </trkpt>
      <trkpt lat="48.60271" lon="1.95804">
        <ele>111.2</ele>
        <time>2024-10-31T08:18:27Z</time>
      </trkpt>
      <trkpt lat="48.60278" lon="1.95794">
        <ele>111</ele>
        <time>2024-10-31T08:18:34Z</time>
      </trkpt>
      <trkpt lat="48.60287" lon="1.95787">
        <ele>110.8</ele>
        <time>2024-10-31T08:18:42Z</time>
      </trkpt>
      <trkpt lat="48.60294" lon="1.95778">
        <ele>110.4</ele>
        <time>2024-10-31T08:18:50Z</time>
      </trkpt>
      <trkpt lat="48.603" lon="1.95766">
        <ele>110.2</ele>
        <time>2024-10-31T08:18:56Z</time>
      </trkpt>
      <trkpt lat="48.60302" lon="1.95753">
        <ele>110.1</ele>
        <time>2024-10-31T08:19:02Z</time>
      </trkpt>
      <trkpt lat="48.60303" lon="1.95737">
        <ele>110.1</ele>
        <time>2024-10-31T08:19:09Z</time>
      </trkpt>
      <trkpt lat="48.60305" lon="1.95724">
        <ele>110</ele>
        <time>2024-10-31T08:19:15Z</time>
      </trkpt>
      <trkpt lat="48.60312" lon="1.95713">
        <ele>110.3</ele>
        <time>2024-10-31T08:19:23Z</time>
      </trkpt>
      <trkpt lat="48.60318" lon="1.957">
        <ele>110.5</ele>
        <time>2024-10-31T08:19:29Z</time>
      </trkpt>
      <trkpt lat="48.60324" lon="1.95689">
        <ele>110.5</ele>
        <time>2024-10-31T08:19:36Z</time>
      </trkpt>
      <trkpt lat="48.60329" lon="1.95675">
        <ele>110.7</ele>
        <time>2024-10-31T08:19:43Z</time>
      </trkpt>
      <trkpt lat="48.60336" lon="1.95664">
        <ele>110.9</ele>
        <time>2024-10-31T08:19:51Z</time>
      </trkpt>
      <trkpt lat="48.60341" lon="1.9565">
        <ele>110.7</ele>
        <time>2024-10-31T08:19:58Z</time>
      </trkpt>
      <trkpt lat="48.60347" lon="1.95639">
        <ele>110.5</ele>
        <time>2024-10-31T08:20:04Z</time>
      </trkpt>
      <trkpt lat="48.60353" lon="1.95628">
        <ele>110.3</ele>
        <time>2024-10-31T08:20:12Z</time>
      </trkpt>
      <trkpt lat="48.60359" lon="1.95616">
        <ele>110.1</ele>
        <time>2024-10-31T08:20:20Z</time>
      </trkpt>
      <trkpt lat="48.60363" lon="1.95602">
        <ele>110</ele>
        <time>2024-10-31T08:20:30Z</time>
      </trkpt>
      <trkpt lat="48.60372" lon="1.956">
        <ele>110</ele>
        <time>2024-10-31T08:20:57Z</time>
      </trkpt>
      <trkpt lat="48.60381" lon="1.95604">
        <ele>110</ele>
        <time>2024-10-31T08:21:25Z</time>
      </trkpt>
      <trkpt lat="48.60385" lon="1.95591">
        <ele>110</ele>
        <time>2024-10-31T08:21:35Z</time>
      </trkpt>
      <trkpt lat="48.6039" lon="1.9558">
        <ele>110</ele>
        <time>2024-10-31T08:21:50Z</time>
      </trkpt>
      <trkpt lat="48.60389" lon="1.95565">
        <ele>110</ele>
        <time>2024-10-31T08:21:58Z</time>
      </trkpt>
      <trkpt lat="48.60396" lon="1.95557">
        <ele>110</ele>
        <time>2024-10-31T08:22:06Z</time>
      </trkpt>
      <trkpt lat="48.60401" lon="1.95543">
        <ele>110</ele>
        <time>2024-10-31T08:22:13Z</time>
      </trkpt>
      <trkpt lat="48.60406" lon="1.95531">
        <ele>110</ele>
        <time>2024-10-31T08:22:21Z</time>
      </trkpt>
      <trkpt lat="48.60412" lon="1.95518">
        <ele>110</ele>
        <time>2024-10-31T08:22:29Z</time>
      </trkpt>
      <trkpt lat="48.60421" lon="1.95513">
        <ele>110</ele>
        <time>2024-10-31T08:22:36Z</time>
      </trkpt>
      <trkpt lat="48.6043" lon="1.95509">
        <ele>110</ele>
        <time>2024-10-31T08:22:43Z</time>
      </trkpt>
      <trkpt lat="48.60434" lon="1.95496">
        <ele>110</ele>
        <time>2024-10-31T08:22:50Z</time>
      </trkpt>
      <trkpt lat="48.60436" lon="1.95482">
        <ele>110</ele>
        <time>2024-10-31T08:22:54Z</time>
      </trkpt>
      <trkpt lat="48.60442" lon="1.9547">
        <ele>110</ele>
        <time>2024-10-31T08:23:00Z</time>
      </trkpt>
      <trkpt lat="48.60446" lon="1.95454">
        <ele>110</ele>
        <time>2024-10-31T08:23:06Z</time>
      </trkpt>
      <trkpt lat="48.60449" lon="1.95441">
        <ele>110.1</ele>
        <time>2024-10-31T08:23:10Z</time>
      </trkpt>
      <trkpt lat="48.60456" lon="1.95429">
        <ele>110.3</ele>
        <time>2024-10-31T08:23:16Z</time>
      </trkpt>
      <trkpt lat="48.60462" lon="1.95418">
        <ele>110.4</ele>
        <time>2024-10-31T08:23:24Z</time>
      </trkpt>
      <trkpt lat="48.60466" lon="1.95406">
        <ele>110.2</ele>
        <time>2024-10-31T08:23:31Z</time>
      </trkpt>
      <trkpt lat="48.60474" lon="1.95398">
        <ele>110</ele>
        <time>2024-10-31T08:23:40Z</time>
      </trkpt>
      <trkpt lat="48.6048" lon="1.95385">
        <ele>110.1</ele>
        <time>2024-10-31T08:23:47Z</time>
      </trkpt>
      <trkpt lat="48.60487" lon="1.95376">
        <ele>110.2</ele>
        <time>2024-10-31T08:23:54Z</time>
      </trkpt>
      <trkpt lat="48.60495" lon="1.9537">
        <ele>110.1</ele>
        <time>2024-10-31T08:24:01Z</time>
      </trkpt>
      <trkpt lat="48.60501" lon="1.95357">
        <ele>110</ele>
        <time>2024-10-31T08:24:08Z</time>
      </trkpt>
      <trkpt lat="48.60506" lon="1.95345">
        <ele>110</ele>
        <time>2024-10-31T08:24:15Z</time>
      </trkpt>
      <trkpt lat="48.60511" lon="1.95334">
        <ele>110</ele>
        <time>2024-10-31T08:24:36Z</time>
      </trkpt>
      <trkpt lat="48.60518" lon="1.95324">
        <ele>110.3</ele>
        <time>2024-10-31T08:24:47Z</time>
      </trkpt>
      <trkpt lat="48.60527" lon="1.95319">
        <ele>110.5</ele>
        <time>2024-10-31T08:24:55Z</time>
      </trkpt>
      <trkpt lat="48.60536" lon="1.95313">
        <ele>110.5</ele>
        <time>2024-10-31T08:25:07Z</time>
      </trkpt>
      <trkpt lat="48.60541" lon="1.95301">
        <ele>110.6</ele>
        <time>2024-10-31T08:25:16Z</time>
      </trkpt>
      <trkpt lat="48.60548" lon="1.95291">
        <ele>110.7</ele>
        <time>2024-10-31T08:25:29Z</time>
      </trkpt>
      <trkpt lat="48.60553" lon="1.95278">
        <ele>111</ele>
        <time>2024-10-31T08:25:40Z</time>
      </trkpt>
      <trkpt lat="48.60548" lon="1.95265">
        <ele>111</ele>
        <time>2024-10-31T08:25:48Z</time>
      </trkpt>
      <trkpt lat="48.60544" lon="1.95252">
        <ele>111</ele>
        <time>2024-10-31T08:26:00Z</time>
      </trkpt>
      <trkpt lat="48.60549" lon="1.95239">
        <ele>111</ele>
        <time>2024-10-31T08:26:08Z</time>
      </trkpt>
      <trkpt lat="48.60557" lon="1.9523">
        <ele>111</ele>
        <time>2024-10-31T08:26:19Z</time>
      </trkpt>
      <trkpt lat="48.60562" lon="1.95217">
        <ele>111</ele>
        <time>2024-10-31T08:26:29Z</time>
      </trkpt>
      <trkpt lat="48.6057" lon="1.95224">
        <ele>111</ele>
        <time>2024-10-31T08:26:49Z</time>
      </trkpt>
      <trkpt lat="48.60571" lon="1.95238">
        <ele>111</ele>
        <time>2024-10-31T08:26:59Z</time>
      </trkpt>
      <trkpt lat="48.60571" lon="1.95253">
        <ele>110.9</ele>
        <time>2024-10-31T08:27:10Z</time>
      </trkpt>
      <trkpt lat="48.60571" lon="1.95267">
        <ele>110.6</ele>
        <time>2024-10-31T08:27:20Z</time>
      </trkpt>
      <trkpt lat="48.60573" lon="1.95281">
        <ele>110.3</ele>
        <time>2024-10-31T08:27:27Z</time>
      </trkpt>
      <trkpt lat="48.60573" lon="1.95294">
        <ele>110.2</ele>
        <time>2024-10-31T08:27:34Z</time>
      </trkpt>
      <trkpt lat="48.60573" lon="1.9531">
        <ele>110</ele>
        <time>2024-10-31T08:27:41Z</time>
      </trkpt>
      <trkpt lat="48.60576" lon="1.95322">
        <ele>110</ele>
        <time>2024-10-31T08:27:48Z</time>
      </trkpt>
      <trkpt lat="48.60582" lon="1.95334">
        <ele>110</ele>
        <time>2024-10-31T08:27:56Z</time>
      </trkpt>
      <trkpt lat="48.60585" lon="1.95349">
        <ele>109.5</ele>
        <time>2024-10-31T08:28:06Z</time>
      </trkpt>
      <trkpt lat="48.60587" lon="1.95363">
        <ele>109.1</ele>
        <time>2024-10-31T08:28:12Z</time>
      </trkpt>
      <trkpt lat="48.60591" lon="1.95377">
        <ele>109.1</ele>
        <time>2024-10-31T08:28:18Z</time>
      </trkpt>
      <trkpt lat="48.60592" lon="1.95391">
        <ele>109</ele>
        <time>2024-10-31T08:28:25Z</time>
      </trkpt>
      <trkpt lat="48.60597" lon="1.95403">
        <ele>109</ele>
        <time>2024-10-31T08:28:34Z</time>
      </trkpt>
      <trkpt lat="48.60595" lon="1.95418">
        <ele>109</ele>
        <time>2024-10-31T08:28:45Z</time>
      </trkpt>
      <trkpt lat="48.60596" lon="1.95434">
        <ele>109</ele>
        <time>2024-10-31T08:28:53Z</time>
      </trkpt>
      <trkpt lat="48.60594" lon="1.95448">
        <ele>109</ele>
        <time>2024-10-31T08:28:59Z</time>
      </trkpt>
      <trkpt lat="48.60596" lon="1.95462">
        <ele>109</ele>
        <time>2024-10-31T08:29:08Z</time>
      </trkpt>
      <trkpt lat="48.60601" lon="1.95476">
        <ele>109</ele>
        <time>2024-10-31T08:29:15Z</time>
      </trkpt>
      <trkpt lat="48.60605" lon="1.95488">
        <ele>109</ele>
        <time>2024-10-31T08:29:21Z</time>
      </trkpt>
      <trkpt lat="48.60607" lon="1.95502">
        <ele>109</ele>
        <time>2024-10-31T08:29:28Z</time>
      </trkpt>
      <trkpt lat="48.60614" lon="1.95514">
        <ele>109</ele>
        <time>2024-10-31T08:29:39Z</time>
      </trkpt>
      <trkpt lat="48.60613" lon="1.95528">
        <ele>108.9</ele>
        <time>2024-10-31T08:29:45Z</time>
      </trkpt>
      <trkpt lat="48.60617" lon="1.95541">
        <ele>108.4</ele>
        <time>2024-10-31T08:29:54Z</time>
      </trkpt>
      <trkpt lat="48.60617" lon="1.95556">
        <ele>108</ele>
        <time>2024-10-31T08:30:01Z</time>
      </trkpt>
      <trkpt lat="48.60619" lon="1.9557">
        <ele>108</ele>
        <time>2024-10-31T08:30:07Z</time>
      </trkpt>
      <trkpt lat="48.60622" lon="1.95584">
        <ele>108</ele>
        <time>2024-10-31T08:30:14Z</time>
      </trkpt>
      <trkpt lat="48.60627" lon="1.95597">
        <ele>108</ele>
        <time>2024-10-31T08:30:20Z</time>
      </trkpt>
      <trkpt lat="48.60631" lon="1.9561">
        <ele>108</ele>
        <time>2024-10-31T08:30:27Z</time>
      </trkpt>
      <trkpt lat="48.60634" lon="1.95623">
        <ele>108</ele>
        <time>2024-10-31T08:30:34Z</time>
      </trkpt>
      <trkpt lat="48.60639" lon="1.95635">
        <ele>108</ele>
        <time>2024-10-31T08:30:40Z</time>
      </trkpt>
      <trkpt lat="48.60648" lon="1.95642">
        <ele>108</ele>
        <time>2024-10-31T08:30:47Z</time>
      </trkpt>
      <trkpt lat="48.60656" lon="1.95651">
        <ele>108</ele>
        <time>2024-10-31T08:30:55Z</time>
      </trkpt>
      <trkpt lat="48.60663" lon="1.95662">
        <ele>108</ele>
        <time>2024-10-31T08:31:02Z</time>
      </trkpt>
      <trkpt lat="48.6067" lon="1.95672">
        <ele>108</ele>
        <time>2024-10-31T08:31:11Z</time>
      </trkpt>
      <trkpt lat="48.60672" lon="1.95688">
        <ele>108</ele>
        <time>2024-10-31T08:31:19Z</time>
      </trkpt>
      <trkpt lat="48.60678" lon="1.957">
        <ele>108</ele>
        <time>2024-10-31T08:31:26Z</time>
      </trkpt>
      <trkpt lat="48.60683" lon="1.95713">
        <ele>108</ele>
        <time>2024-10-31T08:31:32Z</time>
      </trkpt>
      <trkpt lat="48.60689" lon="1.95724">
        <ele>108</ele>
        <time>2024-10-31T08:31:38Z</time>
      </trkpt>
      <trkpt lat="48.60695" lon="1.95736">
        <ele>108</ele>
        <time>2024-10-31T08:31:44Z</time>
      </trkpt>
      <trkpt lat="48.60698" lon="1.9575">
        <ele>107.9</ele>
        <time>2024-10-31T08:31:50Z</time>
      </trkpt>
      <trkpt lat="48.60699" lon="1.95764">
        <ele>107.8</ele>
        <time>2024-10-31T08:31:58Z</time>
      </trkpt>
      <trkpt lat="48.60698" lon="1.95778">
        <ele>107.9</ele>
        <time>2024-10-31T08:32:06Z</time>
      </trkpt>
      <trkpt lat="48.60699" lon="1.95793">
        <ele>107.4</ele>
        <time>2024-10-31T08:32:13Z</time>
      </trkpt>
      <trkpt lat="48.60708" lon="1.95797">
        <ele>107.2</ele>
        <time>2024-10-31T08:32:22Z</time>
      </trkpt>
      <trkpt lat="48.60708" lon="1.95811">
        <ele>106.9</ele>
        <time>2024-10-31T08:32:27Z</time>
      </trkpt>
      <trkpt lat="48.60706" lon="1.95825">
        <ele>106.7</ele>
        <time>2024-10-31T08:32:32Z</time>
      </trkpt>
      <trkpt lat="48.60702" lon="1.95839">
        <ele>106.7</ele>
        <time>2024-10-31T08:32:37Z</time>
      </trkpt>
      <trkpt lat="48.60697" lon="1.95849">
        <ele>106.9</ele>
        <time>2024-10-31T08:32:42Z</time>
      </trkpt>
      <trkpt lat="48.60691" lon="1.9586">
        <ele>107</ele>
        <time>2024-10-31T08:32:48Z</time>
      </trkpt>
      <trkpt lat="48.60685" lon="1.95872">
        <ele>107</ele>
        <time>2024-10-31T08:32:55Z</time>
      </trkpt>
      <trkpt lat="48.60678" lon="1.95882">
        <ele>107</ele>
        <time>2024-10-31T08:33:02Z</time>
      </trkpt>
      <trkpt lat="48.60672" lon="1.95893">
        <ele>107</ele>
        <time>2024-10-31T08:33:09Z</time>
      </trkpt>
      <trkpt lat="48.60664" lon="1.95902">
        <ele>107</ele>
        <time>2024-10-31T08:33:20Z</time>
      </trkpt>
      <trkpt lat="48.60665" lon="1.95916">
        <ele>107</ele>
        <time>2024-10-31T08:35:17Z</time>
      </trkpt>
      <trkpt lat="48.60671" lon="1.95928">
        <ele>107</ele>
        <time>2024-10-31T08:35:24Z</time>
      </trkpt>
      <trkpt lat="48.60677" lon="1.95941">
        <ele>107</ele>
        <time>2024-10-31T08:35:31Z</time>
      </trkpt>
      <trkpt lat="48.60685" lon="1.95951">
        <ele>107</ele>
        <time>2024-10-31T08:35:38Z</time>
      </trkpt>
      <trkpt lat="48.60693" lon="1.9596">
        <ele>107</ele>
        <time>2024-10-31T08:35:45Z</time>
      </trkpt>
      <trkpt lat="48.60702" lon="1.95968">
        <ele>107.2</ele>
        <time>2024-10-31T08:35:52Z</time>
      </trkpt>
      <trkpt lat="48.6071" lon="1.95977">
        <ele>107.8</ele>
        <time>2024-10-31T08:36:01Z</time>
      </trkpt>
      <trkpt lat="48.60712" lon="1.9599">
        <ele>108.5</ele>
        <time>2024-10-31T08:36:11Z</time>
      </trkpt>
      <trkpt lat="48.60714" lon="1.96004">
        <ele>109.1</ele>
        <time>2024-10-31T08:36:19Z</time>
      </trkpt>
      <trkpt lat="48.60718" lon="1.96017">
        <ele>109.6</ele>
        <time>2024-10-31T08:36:27Z</time>
      </trkpt>
      <trkpt lat="48.60722" lon="1.96031">
        <ele>110.2</ele>
        <time>2024-10-31T08:36:38Z</time>
      </trkpt>
      <trkpt lat="48.60723" lon="1.96045">
        <ele>111.3</ele>
        <time>2024-10-31T08:36:48Z</time>
      </trkpt>
      <trkpt lat="48.60723" lon="1.96061">
        <ele>112.2</ele>
        <time>2024-10-31T08:36:57Z</time>
      </trkpt>
      <trkpt lat="48.60723" lon="1.96075">
        <ele>112.7</ele>
        <time>2024-10-31T08:37:03Z</time>
      </trkpt>
      <trkpt lat="48.60721" lon="1.96088">
        <ele>113.4</ele>
        <time>2024-10-31T08:37:10Z</time>
      </trkpt>
      <trkpt lat="48.60715" lon="1.96099">
        <ele>114.4</ele>
        <time>2024-10-31T08:37:16Z</time>
      </trkpt>
      <trkpt lat="48.6071" lon="1.96114">
        <ele>115.6</ele>
        <time>2024-10-31T08:37:23Z</time>
      </trkpt>
      <trkpt lat="48.60704" lon="1.96125">
        <ele>116.3</ele>
        <time>2024-10-31T08:37:28Z</time>
      </trkpt>
      <trkpt lat="48.60699" lon="1.96135">
        <ele>116.9</ele>
        <time>2024-10-31T08:37:33Z</time>
      </trkpt>
      <trkpt lat="48.60693" lon="1.96148">
        <ele>117.8</ele>
        <time>2024-10-31T08:37:39Z</time>
      </trkpt>
      <trkpt lat="48.60689" lon="1.96161">
        <ele>119</ele>
        <time>2024-10-31T08:37:46Z</time>
      </trkpt>
      <trkpt lat="48.60683" lon="1.96173">
        <ele>120</ele>
        <time>2024-10-31T08:37:55Z</time>
      </trkpt>
      <trkpt lat="48.60679" lon="1.96186">
        <ele>120.8</ele>
        <time>2024-10-31T08:38:02Z</time>
      </trkpt>
      <trkpt lat="48.60673" lon="1.96197">
        <ele>121.5</ele>
        <time>2024-10-31T08:38:09Z</time>
      </trkpt>
      <trkpt lat="48.60667" lon="1.96209">
        <ele>122</ele>
        <time>2024-10-31T08:38:16Z</time>
      </trkpt>
      <trkpt lat="48.6066" lon="1.96219">
        <ele>122.7</ele>
        <time>2024-10-31T08:38:26Z</time>
      </trkpt>
      <trkpt lat="48.60655" lon="1.9623">
        <ele>123.2</ele>
        <time>2024-10-31T08:38:32Z</time>
      </trkpt>
      <trkpt lat="48.60648" lon="1.96242">
        <ele>123.5</ele>
        <time>2024-10-31T08:38:40Z</time>
      </trkpt>
      <trkpt lat="48.60657" lon="1.9625">
        <ele>122.7</ele>
        <time>2024-10-31T08:38:59Z</time>
      </trkpt>
      <trkpt lat="48.60659" lon="1.96264">
        <ele>122.5</ele>
        <time>2024-10-31T08:39:07Z</time>
      </trkpt>
      <trkpt lat="48.60659" lon="1.96279">
        <ele>122.5</ele>
        <time>2024-10-31T08:39:16Z</time>
      </trkpt>
      <trkpt lat="48.60667" lon="1.96289">
        <ele>122</ele>
        <time>2024-10-31T08:39:24Z</time>
      </trkpt>
      <trkpt lat="48.60673" lon="1.96301">
        <ele>121.8</ele>
        <time>2024-10-31T08:39:31Z</time>
      </trkpt>
      <trkpt lat="48.60676" lon="1.96316">
        <ele>121.6</ele>
        <time>2024-10-31T08:39:37Z</time>
      </trkpt>
      <trkpt lat="48.60681" lon="1.96328">
        <ele>121.1</ele>
        <time>2024-10-31T08:39:43Z</time>
      </trkpt>
      <trkpt lat="48.60678" lon="1.96344">
        <ele>121.2</ele>
        <time>2024-10-31T08:39:48Z</time>
      </trkpt>
      <trkpt lat="48.60681" lon="1.96359">
        <ele>120.9</ele>
        <time>2024-10-31T08:39:54Z</time>
      </trkpt>
      <trkpt lat="48.60686" lon="1.96372">
        <ele>120.5</ele>
        <time>2024-10-31T08:39:59Z</time>
      </trkpt>
      <trkpt lat="48.60689" lon="1.96385">
        <ele>120.2</ele>
        <time>2024-10-31T08:40:06Z</time>
      </trkpt>
      <trkpt lat="48.60691" lon="1.964">
        <ele>120.1</ele>
        <time>2024-10-31T08:40:12Z</time>
      </trkpt>
      <trkpt lat="48.60694" lon="1.96413">
        <ele>120</ele>
        <time>2024-10-31T08:40:18Z</time>
      </trkpt>
      <trkpt lat="48.60704" lon="1.96419">
        <ele>119.3</ele>
        <time>2024-10-31T08:40:24Z</time>
      </trkpt>
      <trkpt lat="48.60709" lon="1.96431">
        <ele>118.7</ele>
        <time>2024-10-31T08:40:31Z</time>
      </trkpt>
      <trkpt lat="48.60709" lon="1.96447">
        <ele>118.5</ele>
        <time>2024-10-31T08:40:38Z</time>
      </trkpt>
      <trkpt lat="48.60709" lon="1.96462">
        <ele>118.5</ele>
        <time>2024-10-31T08:40:44Z</time>
      </trkpt>
      <trkpt lat="48.60709" lon="1.96476">
        <ele>118.5</ele>
        <time>2024-10-31T08:40:50Z</time>
      </trkpt>
      <trkpt lat="48.60707" lon="1.9649">
        <ele>118.5</ele>
        <time>2024-10-31T08:40:57Z</time>
      </trkpt>
      <trkpt lat="48.60705" lon="1.96503">
        <ele>118.6</ele>
        <time>2024-10-31T08:41:04Z</time>
      </trkpt>
      <trkpt lat="48.60703" lon="1.96519">
        <ele>118.7</ele>
        <time>2024-10-31T08:41:12Z</time>
      </trkpt>
      <trkpt lat="48.60705" lon="1.96534">
        <ele>118.6</ele>
        <time>2024-10-31T08:41:18Z</time>
      </trkpt>
      <trkpt lat="48.60706" lon="1.9655">
        <ele>118.3</ele>
        <time>2024-10-31T08:41:24Z</time>
      </trkpt>
      <trkpt lat="48.60708" lon="1.96563">
        <ele>117.9</ele>
        <time>2024-10-31T08:41:30Z</time>
      </trkpt>
      <trkpt lat="48.60709" lon="1.96578">
        <ele>117.6</ele>
        <time>2024-10-31T08:41:37Z</time>
      </trkpt>
      <trkpt lat="48.60708" lon="1.96594">
        <ele>117.5</ele>
        <time>2024-10-31T08:41:44Z</time>
      </trkpt>
      <trkpt lat="48.60709" lon="1.96607">
        <ele>117.5</ele>
        <time>2024-10-31T08:41:50Z</time>
      </trkpt>
      <trkpt lat="48.60709" lon="1.96623">
        <ele>117.3</ele>
        <time>2024-10-31T08:41:55Z</time>
      </trkpt>
      <trkpt lat="48.60707" lon="1.96637">
        <ele>117.1</ele>
        <time>2024-10-31T08:42:00Z</time>
      </trkpt>
      <trkpt lat="48.60706" lon="1.96652">
        <ele>116.9</ele>
        <time>2024-10-31T08:42:07Z</time>
      </trkpt>
      <trkpt lat="48.60706" lon="1.96667">
        <ele>116.6</ele>
        <time>2024-10-31T08:42:14Z</time>
      </trkpt>
      <trkpt lat="48.60705" lon="1.96684">
        <ele>116</ele>
        <time>2024-10-31T08:42:19Z</time>
      </trkpt>
      <trkpt lat="48.60704" lon="1.96698">
        <ele>115.6</ele>
        <time>2024-10-31T08:42:24Z</time>
      </trkpt>
      <trkpt lat="48.60705" lon="1.96712">
        <ele>115.6</ele>
        <time>2024-10-31T08:42:30Z</time>
      </trkpt>
      <trkpt lat="48.60708" lon="1.96727">
        <ele>115.4</ele>
        <time>2024-10-31T08:42:37Z</time>
      </trkpt>
      <trkpt lat="48.60712" lon="1.96739">
        <ele>114.7</ele>
        <time>2024-10-31T08:42:44Z</time>
      </trkpt>
      <trkpt lat="48.60715" lon="1.96754">
        <ele>114.3</ele>
        <time>2024-10-31T08:42:51Z</time>
      </trkpt>
      <trkpt lat="48.60716" lon="1.96767">
        <ele>114.2</ele>
        <time>2024-10-31T08:42:58Z</time>
      </trkpt>
      <trkpt lat="48.60716" lon="1.96783">
        <ele>114.2</ele>
        <time>2024-10-31T08:43:06Z</time>
      </trkpt>
      <trkpt lat="48.60714" lon="1.96798">
        <ele>114.3</ele>
        <time>2024-10-31T08:43:16Z</time>
      </trkpt>
      <trkpt lat="48.60711" lon="1.96811">
        <ele>114.2</ele>
        <time>2024-10-31T08:43:23Z</time>
      </trkpt>
      <trkpt lat="48.60707" lon="1.96825">
        <ele>113.9</ele>
        <time>2024-10-31T08:43:32Z</time>
      </trkpt>
      <trkpt lat="48.60706" lon="1.96839">
        <ele>113.6</ele>
        <time>2024-10-31T08:43:39Z</time>
      </trkpt>
      <trkpt lat="48.60704" lon="1.96853">
        <ele>113.7</ele>
        <time>2024-10-31T08:43:45Z</time>
      </trkpt>
      <trkpt lat="48.60702" lon="1.96866">
        <ele>113.7</ele>
        <time>2024-10-31T08:43:51Z</time>
      </trkpt>
      <trkpt lat="48.60699" lon="1.9688">
        <ele>113.8</ele>
        <time>2024-10-31T08:43:56Z</time>
      </trkpt>
      <trkpt lat="48.60697" lon="1.96893">
        <ele>113.9</ele>
        <time>2024-10-31T08:44:03Z</time>
      </trkpt>
      <trkpt lat="48.60694" lon="1.96907">
        <ele>114</ele>
        <time>2024-10-31T08:44:10Z</time>
      </trkpt>
      <trkpt lat="48.60688" lon="1.9692">
        <ele>114.2</ele>
        <time>2024-10-31T08:44:16Z</time>
      </trkpt>
      <trkpt lat="48.60681" lon="1.96932">
        <ele>114.2</ele>
        <time>2024-10-31T08:44:21Z</time>
      </trkpt>
      <trkpt lat="48.60675" lon="1.96945">
        <ele>114.4</ele>
        <time>2024-10-31T08:44:28Z</time>
      </trkpt>
      <trkpt lat="48.6067" lon="1.96958">
        <ele>114.8</ele>
        <time>2024-10-31T08:44:37Z</time>
      </trkpt>
      <trkpt lat="48.60667" lon="1.96973">
        <ele>114.9</ele>
        <time>2024-10-31T08:44:44Z</time>
      </trkpt>
      <trkpt lat="48.60665" lon="1.96988">
        <ele>114.5</ele>
        <time>2024-10-31T08:44:50Z</time>
      </trkpt>
      <trkpt lat="48.60663" lon="1.97002">
        <ele>114.3</ele>
        <time>2024-10-31T08:44:56Z</time>
      </trkpt>
      <trkpt lat="48.60663" lon="1.97017">
        <ele>114.2</ele>
        <time>2024-10-31T08:45:03Z</time>
      </trkpt>
      <trkpt lat="48.60662" lon="1.97031">
        <ele>114.1</ele>
        <time>2024-10-31T08:45:09Z</time>
      </trkpt>
      <trkpt lat="48.60661" lon="1.97045">
        <ele>113.7</ele>
        <time>2024-10-31T08:45:17Z</time>
      </trkpt>
      <trkpt lat="48.60665" lon="1.97058">
        <ele>113.1</ele>
        <time>2024-10-31T08:45:26Z</time>
      </trkpt>
      <trkpt lat="48.60669" lon="1.97072">
        <ele>112.8</ele>
        <time>2024-10-31T08:45:36Z</time>
      </trkpt>
      <trkpt lat="48.60674" lon="1.97084">
        <ele>112.4</ele>
        <time>2024-10-31T08:45:44Z</time>
      </trkpt>
      <trkpt lat="48.60682" lon="1.97093">
        <ele>111.5</ele>
        <time>2024-10-31T08:45:51Z</time>
      </trkpt>
      <trkpt lat="48.60689" lon="1.97105">
        <ele>110.6</ele>
        <time>2024-10-31T08:46:01Z</time>
      </trkpt>
      <trkpt lat="48.60696" lon="1.97115">
        <ele>110</ele>
        <time>2024-10-31T08:46:09Z</time>
      </trkpt>
      <trkpt lat="48.60699" lon="1.97129">
        <ele>109.8</ele>
        <time>2024-10-31T08:46:17Z</time>
      </trkpt>
      <trkpt lat="48.60704" lon="1.97141">
        <ele>109.6</ele>
        <time>2024-10-31T08:46:26Z</time>
      </trkpt>
      <trkpt lat="48.60707" lon="1.97155">
        <ele>109</ele>
        <time>2024-10-31T08:46:34Z</time>
      </trkpt>
      <trkpt lat="48.60709" lon="1.97169">
        <ele>108.5</ele>
        <time>2024-10-31T08:46:42Z</time>
      </trkpt>
      <trkpt lat="48.60709" lon="1.97184">
        <ele>108.5</ele>
        <time>2024-10-31T08:46:52Z</time>
      </trkpt>
      <trkpt lat="48.60707" lon="1.97198">
        <ele>108.5</ele>
        <time>2024-10-31T08:47:07Z</time>
      </trkpt>
      <trkpt lat="48.60704" lon="1.97212">
        <ele>108.6</ele>
        <time>2024-10-31T08:47:17Z</time>
      </trkpt>
      <trkpt lat="48.60705" lon="1.97227">
        <ele>108.6</ele>
        <time>2024-10-31T08:47:26Z</time>
      </trkpt>
      <trkpt lat="48.60702" lon="1.97242">
        <ele>108.7</ele>
        <time>2024-10-31T08:47:43Z</time>
      </trkpt>
      <trkpt lat="48.60701" lon="1.97257">
        <ele>108.5</ele>
        <time>2024-10-31T08:47:49Z</time>
      </trkpt>
      <trkpt lat="48.60701" lon="1.97271">
        <ele>108</ele>
        <time>2024-10-31T08:47:57Z</time>
      </trkpt>
      <trkpt lat="48.60707" lon="1.97282">
        <ele>107.6</ele>
        <time>2024-10-31T08:48:07Z</time>
      </trkpt>
      <trkpt lat="48.6071" lon="1.97295">
        <ele>107.4</ele>
        <time>2024-10-31T08:48:15Z</time>
      </trkpt>
      <trkpt lat="48.60714" lon="1.97308">
        <ele>107.3</ele>
        <time>2024-10-31T08:48:23Z</time>
      </trkpt>
      <trkpt lat="48.60716" lon="1.97322">
        <ele>107.2</ele>
        <time>2024-10-31T08:48:31Z</time>
      </trkpt>
      <trkpt lat="48.60719" lon="1.97336">
        <ele>107</ele>
        <time>2024-10-31T08:48:40Z</time>
      </trkpt>
      <trkpt lat="48.60721" lon="1.9735">
        <ele>106.4</ele>
        <time>2024-10-31T08:48:48Z</time>
      </trkpt>
      <trkpt lat="48.60722" lon="1.97364">
        <ele>106</ele>
        <time>2024-10-31T08:48:57Z</time>
      </trkpt>
      <trkpt lat="48.60727" lon="1.97376">
        <ele>105.8</ele>
        <time>2024-10-31T08:49:08Z</time>
      </trkpt>
      <trkpt lat="48.60731" lon="1.97389">
        <ele>105.7</ele>
        <time>2024-10-31T08:49:16Z</time>
      </trkpt>
      <trkpt lat="48.60734" lon="1.97403">
        <ele>105.6</ele>
        <time>2024-10-31T08:49:24Z</time>
      </trkpt>
      <trkpt lat="48.60737" lon="1.97418">
        <ele>105.5</ele>
        <time>2024-10-31T08:49:31Z</time>
      </trkpt>
      <trkpt lat="48.60744" lon="1.97427">
        <ele>105.2</ele>
        <time>2024-10-31T08:49:40Z</time>
      </trkpt>
      <trkpt lat="48.60749" lon="1.97438">
        <ele>105</ele>
        <time>2024-10-31T08:49:54Z</time>
      </trkpt>
      <trkpt lat="48.60752" lon="1.97452">
        <ele>105</ele>
        <time>2024-10-31T08:50:03Z</time>
      </trkpt>
      <trkpt lat="48.6076" lon="1.97444">
        <ele>105</ele>
        <time>2024-10-31T08:51:29Z</time>
      </trkpt>
      <trkpt lat="48.60751" lon="1.97448">
        <ele>105</ele>
        <time>2024-10-31T08:55:40Z</time>
      </trkpt>
      <trkpt lat="48.60742" lon="1.97452">
        <ele>105.3</ele>
        <time>2024-10-31T08:55:53Z</time>
      </trkpt>
      <trkpt lat="48.60733" lon="1.97457">
        <ele>105.6</ele>
        <time>2024-10-31T08:56:01Z</time>
      </trkpt>
      <trkpt lat="48.60724" lon="1.97461">
        <ele>105.9</ele>
        <time>2024-10-31T08:56:08Z</time>
      </trkpt>
      <trkpt lat="48.60716" lon="1.97468">
        <ele>106</ele>
        <time>2024-10-31T08:56:15Z</time>
      </trkpt>
      <trkpt lat="48.60706" lon="1.97469">
        <ele>106</ele>
        <time>2024-10-31T08:56:23Z</time>
      </trkpt>
      <trkpt lat="48.60698" lon="1.97467">
        <ele>106</ele>
        <time>2024-10-31T08:56:31Z</time>
      </trkpt>
      <trkpt lat="48.60688" lon="1.97465">
        <ele>106.2</ele>
        <time>2024-10-31T08:56:39Z</time>
      </trkpt>
      <trkpt lat="48.60679" lon="1.9746">
        <ele>106.5</ele>
        <time>2024-10-31T08:56:47Z</time>
      </trkpt>
      <trkpt lat="48.6067" lon="1.97457">
        <ele>106.9</ele>
        <time>2024-10-31T08:56:54Z</time>
      </trkpt>
      <trkpt lat="48.60661" lon="1.9745">
        <ele>107.4</ele>
        <time>2024-10-31T08:57:01Z</time>
      </trkpt>
      <trkpt lat="48.60654" lon="1.9744">
        <ele>107.9</ele>
        <time>2024-10-31T08:57:09Z</time>
      </trkpt>
      <trkpt lat="48.60647" lon="1.97429">
        <ele>108.4</ele>
        <time>2024-10-31T08:57:15Z</time>
      </trkpt>
      <trkpt lat="48.60639" lon="1.97421">
        <ele>109</ele>
        <time>2024-10-31T08:57:23Z</time>
      </trkpt>
      <trkpt lat="48.60631" lon="1.97412">
        <ele>109.3</ele>
        <time>2024-10-31T08:57:30Z</time>
      </trkpt>
      <trkpt lat="48.60623" lon="1.97403">
        <ele>109.6</ele>
        <time>2024-10-31T08:57:37Z</time>
      </trkpt>
      <trkpt lat="48.60616" lon="1.97395">
        <ele>109.8</ele>
        <time>2024-10-31T08:57:43Z</time>
      </trkpt>
      <trkpt lat="48.60608" lon="1.97385">
        <ele>110.2</ele>
        <time>2024-10-31T08:57:50Z</time>
      </trkpt>
      <trkpt lat="48.60603" lon="1.97373">
        <ele>110.7</ele>
        <time>2024-10-31T08:57:59Z</time>
      </trkpt>
      <trkpt lat="48.60595" lon="1.97363">
        <ele>111</ele>
        <time>2024-10-31T08:58:06Z</time>
      </trkpt>
      <trkpt lat="48.60587" lon="1.97354">
        <ele>111.2</ele>
        <time>2024-10-31T08:58:14Z</time>
      </trkpt>
      <trkpt lat="48.60579" lon="1.97345">
        <ele>111.6</ele>
        <time>2024-10-31T08:58:22Z</time>
      </trkpt>
      <trkpt lat="48.60572" lon="1.97334">
        <ele>112</ele>
        <time>2024-10-31T08:58:29Z</time>
      </trkpt>
      <trkpt lat="48.60564" lon="1.97327">
        <ele>112</ele>
        <time>2024-10-31T08:58:36Z</time>
      </trkpt>
      <trkpt lat="48.60555" lon="1.97322">
        <ele>112</ele>
        <time>2024-10-31T08:58:43Z</time>
      </trkpt>
      <trkpt lat="48.60547" lon="1.97314">
        <ele>112.3</ele>
        <time>2024-10-31T08:58:52Z</time>
      </trkpt>
      <trkpt lat="48.60539" lon="1.97308">
        <ele>112.6</ele>
        <time>2024-10-31T08:58:59Z</time>
      </trkpt>
      <trkpt lat="48.60529" lon="1.97304">
        <ele>113</ele>
        <time>2024-10-31T08:59:07Z</time>
      </trkpt>
      <trkpt lat="48.60522" lon="1.97295">
        <ele>113.1</ele>
        <time>2024-10-31T08:59:13Z</time>
      </trkpt>
      <trkpt lat="48.60512" lon="1.97288">
        <ele>113.4</ele>
        <time>2024-10-31T08:59:20Z</time>
      </trkpt>
      <trkpt lat="48.60503" lon="1.97286">
        <ele>113.6</ele>
        <time>2024-10-31T08:59:27Z</time>
      </trkpt>
      <trkpt lat="48.60493" lon="1.97283">
        <ele>113.9</ele>
        <time>2024-10-31T08:59:34Z</time>
      </trkpt>
      <trkpt lat="48.60484" lon="1.97279">
        <ele>114</ele>
        <time>2024-10-31T08:59:41Z</time>
      </trkpt>
      <trkpt lat="48.60475" lon="1.97275">
        <ele>114.1</ele>
        <time>2024-10-31T08:59:47Z</time>
      </trkpt>
      <trkpt lat="48.60465" lon="1.9727">
        <ele>114.5</ele>
        <time>2024-10-31T08:59:54Z</time>
      </trkpt>
      <trkpt lat="48.60457" lon="1.97265">
        <ele>115</ele>
        <time>2024-10-31T09:00:00Z</time>
      </trkpt>
      <trkpt lat="48.60448" lon="1.9726">
        <ele>115.5</ele>
        <time>2024-10-31T09:00:06Z</time>
      </trkpt>
      <trkpt lat="48.60439" lon="1.97252">
        <ele>115.9</ele>
        <time>2024-10-31T09:00:13Z</time>
      </trkpt>
      <trkpt lat="48.60431" lon="1.97243">
        <ele>116.2</ele>
        <time>2024-10-31T09:00:20Z</time>
      </trkpt>
      <trkpt lat="48.60423" lon="1.97236">
        <ele>116.5</ele>
        <time>2024-10-31T09:00:27Z</time>
      </trkpt>
      <trkpt lat="48.60415" lon="1.9723">
        <ele>116.7</ele>
        <time>2024-10-31T09:00:33Z</time>
      </trkpt>
      <trkpt lat="48.60408" lon="1.9722">
        <ele>117.1</ele>
        <time>2024-10-31T09:00:39Z</time>
      </trkpt>
      <trkpt lat="48.60401" lon="1.9721">
        <ele>117.6</ele>
        <time>2024-10-31T09:00:47Z</time>
      </trkpt>
      <trkpt lat="48.60394" lon="1.972">
        <ele>117.9</ele>
        <time>2024-10-31T09:00:55Z</time>
      </trkpt>
      <trkpt lat="48.60386" lon="1.97189">
        <ele>118.3</ele>
        <time>2024-10-31T09:01:02Z</time>
      </trkpt>
      <trkpt lat="48.60379" lon="1.9718">
        <ele>118.7</ele>
        <time>2024-10-31T09:01:08Z</time>
      </trkpt>
      <trkpt lat="48.60372" lon="1.9717">
        <ele>118.7</ele>
        <time>2024-10-31T09:01:15Z</time>
      </trkpt>
      <trkpt lat="48.60366" lon="1.9716">
        <ele>118.7</ele>
        <time>2024-10-31T09:01:22Z</time>
      </trkpt>
      <trkpt lat="48.60362" lon="1.97147">
        <ele>118.8</ele>
        <time>2024-10-31T09:01:29Z</time>
      </trkpt>
      <trkpt lat="48.60355" lon="1.97137">
        <ele>119.1</ele>
        <time>2024-10-31T09:01:36Z</time>
      </trkpt>
      <trkpt lat="48.60348" lon="1.97128">
        <ele>119.4</ele>
        <time>2024-10-31T09:01:44Z</time>
      </trkpt>
      <trkpt lat="48.6034" lon="1.97119">
        <ele>119.3</ele>
        <time>2024-10-31T09:01:51Z</time>
      </trkpt>
      <trkpt lat="48.60331" lon="1.97112">
        <ele>119.1</ele>
        <time>2024-10-31T09:01:59Z</time>
      </trkpt>
      <trkpt lat="48.60324" lon="1.97104">
        <ele>119.5</ele>
        <time>2024-10-31T09:02:07Z</time>
      </trkpt>
      <trkpt lat="48.60317" lon="1.97093">
        <ele>119.9</ele>
        <time>2024-10-31T09:02:18Z</time>
      </trkpt>
      <trkpt lat="48.60313" lon="1.9708">
        <ele>120</ele>
        <time>2024-10-31T09:02:25Z</time>
      </trkpt>
      <trkpt lat="48.60309" lon="1.97067">
        <ele>120.1</ele>
        <time>2024-10-31T09:02:32Z</time>
      </trkpt>
      <trkpt lat="48.60303" lon="1.97057">
        <ele>120.2</ele>
        <time>2024-10-31T09:02:38Z</time>
      </trkpt>
      <trkpt lat="48.60295" lon="1.97049">
        <ele>120.7</ele>
        <time>2024-10-31T09:02:47Z</time>
      </trkpt>
      <trkpt lat="48.60286" lon="1.97052">
        <ele>121.3</ele>
        <time>2024-10-31T09:02:57Z</time>
      </trkpt>
      <trkpt lat="48.60281" lon="1.97064">
        <ele>121.8</ele>
        <time>2024-10-31T09:03:06Z</time>
      </trkpt>
      <trkpt lat="48.60274" lon="1.97073">
        <ele>122.3</ele>
        <time>2024-10-31T09:03:17Z</time>
      </trkpt>
      <trkpt lat="48.60269" lon="1.97085">
        <ele>122.7</ele>
        <time>2024-10-31T09:03:24Z</time>
      </trkpt>
      <trkpt lat="48.60262" lon="1.97097">
        <ele>123.6</ele>
        <time>2024-10-31T09:03:31Z</time>
      </trkpt>
      <trkpt lat="48.60257" lon="1.97108">
        <ele>124.4</ele>
        <time>2024-10-31T09:03:39Z</time>
      </trkpt>
      <trkpt lat="48.6025" lon="1.97118">
        <ele>125</ele>
        <time>2024-10-31T09:03:48Z</time>
      </trkpt>
      <trkpt lat="48.60241" lon="1.97124">
        <ele>126.1</ele>
        <time>2024-10-31T09:03:57Z</time>
      </trkpt>
      <trkpt lat="48.60237" lon="1.97137">
        <ele>126.9</ele>
        <time>2024-10-31T09:04:04Z</time>
      </trkpt>
      <trkpt lat="48.60232" lon="1.97148">
        <ele>127.9</ele>
        <time>2024-10-31T09:04:11Z</time>
      </trkpt>
      <trkpt lat="48.60228" lon="1.97162">
        <ele>129</ele>
        <time>2024-10-31T09:04:23Z</time>
      </trkpt>
      <trkpt lat="48.60224" lon="1.97175">
        <ele>130</ele>
        <time>2024-10-31T09:04:31Z</time>
      </trkpt>
      <trkpt lat="48.60219" lon="1.97188">
        <ele>131.5</ele>
        <time>2024-10-31T09:04:39Z</time>
      </trkpt>
      <trkpt lat="48.60213" lon="1.972">
        <ele>133</ele>
        <time>2024-10-31T09:04:48Z</time>
      </trkpt>
      <trkpt lat="48.60208" lon="1.97213">
        <ele>134.4</ele>
        <time>2024-10-31T09:04:57Z</time>
      </trkpt>
      <trkpt lat="48.60202" lon="1.97225">
        <ele>136.2</ele>
        <time>2024-10-31T09:05:05Z</time>
      </trkpt>
      <trkpt lat="48.60197" lon="1.97238">
        <ele>138.5</ele>
        <time>2024-10-31T09:05:14Z</time>
      </trkpt>
      <trkpt lat="48.60192" lon="1.9725">
        <ele>140.3</ele>
        <time>2024-10-31T09:05:22Z</time>
      </trkpt>
      <trkpt lat="48.60186" lon="1.97262">
        <ele>141.7</ele>
        <time>2024-10-31T09:05:30Z</time>
      </trkpt>
      <trkpt lat="48.60181" lon="1.97275">
        <ele>142.8</ele>
        <time>2024-10-31T09:05:39Z</time>
      </trkpt>
      <trkpt lat="48.60175" lon="1.97285">
        <ele>143.5</ele>
        <time>2024-10-31T09:05:49Z</time>
      </trkpt>
      <trkpt lat="48.60168" lon="1.97297">
        <ele>143.9</ele>
        <time>2024-10-31T09:06:00Z</time>
      </trkpt>
      <trkpt lat="48.60163" lon="1.97309">
        <ele>144.1</ele>
        <time>2024-10-31T09:06:11Z</time>
      </trkpt>
      <trkpt lat="48.6016" lon="1.97323">
        <ele>144.1</ele>
        <time>2024-10-31T09:06:21Z</time>
      </trkpt>
      <trkpt lat="48.60166" lon="1.97336">
        <ele>144</ele>
        <time>2024-10-31T09:06:31Z</time>
      </trkpt>
      <trkpt lat="48.60173" lon="1.97347">
        <ele>143.8</ele>
        <time>2024-10-31T09:06:41Z</time>
      </trkpt>
      <trkpt lat="48.60179" lon="1.97356">
        <ele>143.5</ele>
        <time>2024-10-31T09:06:50Z</time>
      </trkpt>
      <trkpt lat="48.60187" lon="1.97365">
        <ele>143.1</ele>
        <time>2024-10-31T09:06:59Z</time>
      </trkpt>
      <trkpt lat="48.60196" lon="1.97372">
        <ele>142.4</ele>
        <time>2024-10-31T09:07:06Z</time>
      </trkpt>
      <trkpt lat="48.60203" lon="1.97381">
        <ele>141</ele>
        <time>2024-10-31T09:07:15Z</time>
      </trkpt>
      <trkpt lat="48.6021" lon="1.97391">
        <ele>139.7</ele>
        <time>2024-10-31T09:07:24Z</time>
      </trkpt>
      <trkpt lat="48.60217" lon="1.974">
        <ele>138.3</ele>
        <time>2024-10-31T09:07:35Z</time>
      </trkpt>
      <trkpt lat="48.60225" lon="1.97408">
        <ele>136.8</ele>
        <time>2024-10-31T09:07:42Z</time>
      </trkpt>
      <trkpt lat="48.60233" lon="1.97417">
        <ele>135</ele>
        <time>2024-10-31T09:07:50Z</time>
      </trkpt>
      <trkpt lat="48.60241" lon="1.97423">
        <ele>133.2</ele>
        <time>2024-10-31T09:07:56Z</time>
      </trkpt>
      <trkpt lat="48.6025" lon="1.97429">
        <ele>131.5</ele>
        <time>2024-10-31T09:08:03Z</time>
      </trkpt>
      <trkpt lat="48.60258" lon="1.97437">
        <ele>130.1</ele>
        <time>2024-10-31T09:08:13Z</time>
      </trkpt>
      <trkpt lat="48.60266" lon="1.97446">
        <ele>128.7</ele>
        <time>2024-10-31T09:08:23Z</time>
      </trkpt>
      <trkpt lat="48.60274" lon="1.97454">
        <ele>127.6</ele>
        <time>2024-10-31T09:08:29Z</time>
      </trkpt>
      <trkpt lat="48.60281" lon="1.97465">
        <ele>126.6</ele>
        <time>2024-10-31T09:08:38Z</time>
      </trkpt>
      <trkpt lat="48.60291" lon="1.97471">
        <ele>125.1</ele>
        <time>2024-10-31T09:08:45Z</time>
      </trkpt>
      <trkpt lat="48.60301" lon="1.97477">
        <ele>123.7</ele>
        <time>2024-10-31T09:08:52Z</time>
      </trkpt>
      <trkpt lat="48.6031" lon="1.97484">
        <ele>122.6</ele>
        <time>2024-10-31T09:08:59Z</time>
      </trkpt>
      <trkpt lat="48.60318" lon="1.97492">
        <ele>122</ele>
        <time>2024-10-31T09:09:08Z</time>
      </trkpt>
      <trkpt lat="48.60325" lon="1.97502">
        <ele>121.7</ele>
        <time>2024-10-31T09:09:16Z</time>
      </trkpt>
      <trkpt lat="48.60333" lon="1.97509">
        <ele>121.3</ele>
        <time>2024-10-31T09:09:23Z</time>
      </trkpt>
      <trkpt lat="48.6034" lon="1.97517">
        <ele>121.2</ele>
        <time>2024-10-31T09:09:31Z</time>
      </trkpt>
      <trkpt lat="48.60347" lon="1.97528">
        <ele>121</ele>
        <time>2024-10-31T09:09:39Z</time>
      </trkpt>
      <trkpt lat="48.60356" lon="1.97535">
        <ele>120.7</ele>
        <time>2024-10-31T09:09:47Z</time>
      </trkpt>
      <trkpt lat="48.60365" lon="1.97542">
        <ele>120.1</ele>
        <time>2024-10-31T09:09:54Z</time>
      </trkpt>
      <trkpt lat="48.60373" lon="1.9755">
        <ele>119.5</ele>
        <time>2024-10-31T09:10:01Z</time>
      </trkpt>
      <trkpt lat="48.60381" lon="1.97558">
        <ele>118.9</ele>
        <time>2024-10-31T09:10:08Z</time>
      </trkpt>
      <trkpt lat="48.60389" lon="1.97567">
        <ele>118</ele>
        <time>2024-10-31T09:10:16Z</time>
      </trkpt>
      <trkpt lat="48.60398" lon="1.97576">
        <ele>117.3</ele>
        <time>2024-10-31T09:10:24Z</time>
      </trkpt>
      <trkpt lat="48.60406" lon="1.97582">
        <ele>116.7</ele>
        <time>2024-10-31T09:10:30Z</time>
      </trkpt>
      <trkpt lat="48.60415" lon="1.97586">
        <ele>116.1</ele>
        <time>2024-10-31T09:10:36Z</time>
      </trkpt>
      <trkpt lat="48.60423" lon="1.97597">
        <ele>115.7</ele>
        <time>2024-10-31T09:10:43Z</time>
      </trkpt>
      <trkpt lat="48.6043" lon="1.97606">
        <ele>115.4</ele>
        <time>2024-10-31T09:10:50Z</time>
      </trkpt>
      <trkpt lat="48.60436" lon="1.97618">
        <ele>115.4</ele>
        <time>2024-10-31T09:10:57Z</time>
      </trkpt>
      <trkpt lat="48.60445" lon="1.97624">
        <ele>115</ele>
        <time>2024-10-31T09:11:03Z</time>
      </trkpt>
      <trkpt lat="48.60452" lon="1.97633">
        <ele>114.4</ele>
        <time>2024-10-31T09:11:09Z</time>
      </trkpt>
      <trkpt lat="48.60461" lon="1.9764">
        <ele>113.8</ele>
        <time>2024-10-31T09:11:15Z</time>
      </trkpt>
      <trkpt lat="48.60469" lon="1.97648">
        <ele>113.3</ele>
        <time>2024-10-31T09:11:22Z</time>
      </trkpt>
      <trkpt lat="48.60476" lon="1.97655">
        <ele>112.8</ele>
        <time>2024-10-31T09:11:28Z</time>
      </trkpt>
      <trkpt lat="48.60484" lon="1.97664">
        <ele>112.6</ele>
        <time>2024-10-31T09:11:36Z</time>
      </trkpt>
      <trkpt lat="48.60493" lon="1.97671">
        <ele>112.2</ele>
        <time>2024-10-31T09:11:42Z</time>
      </trkpt>
      <trkpt lat="48.60502" lon="1.97679">
        <ele>111.9</ele>
        <time>2024-10-31T09:11:48Z</time>
      </trkpt>
      <trkpt lat="48.6051" lon="1.97685">
        <ele>111.5</ele>
        <time>2024-10-31T09:11:54Z</time>
      </trkpt>
      <trkpt lat="48.60517" lon="1.97696">
        <ele>111.4</ele>
        <time>2024-10-31T09:12:01Z</time>
      </trkpt>
      <trkpt lat="48.60524" lon="1.97706">
        <ele>111.1</ele>
        <time>2024-10-31T09:12:09Z</time>
      </trkpt>
      <trkpt lat="48.60531" lon="1.97715">
        <ele>110.8</ele>
        <time>2024-10-31T09:12:16Z</time>
      </trkpt>
      <trkpt lat="48.60531" lon="1.9773">
        <ele>110.8</ele>
        <time>2024-10-31T09:12:24Z</time>
      </trkpt>
      <trkpt lat="48.60526" lon="1.97743">
        <ele>111.1</ele>
        <time>2024-10-31T09:12:31Z</time>
      </trkpt>
      <trkpt lat="48.60522" lon="1.97757">
        <ele>111.2</ele>
        <time>2024-10-31T09:12:38Z</time>
      </trkpt>
      <trkpt lat="48.60519" lon="1.97771">
        <ele>111.3</ele>
        <time>2024-10-31T09:12:45Z</time>
      </trkpt>
      <trkpt lat="48.60514" lon="1.97784">
        <ele>111.3</ele>
        <time>2024-10-31T09:12:52Z</time>
      </trkpt>
      <trkpt lat="48.60508" lon="1.97796">
        <ele>111.1</ele>
        <time>2024-10-31T09:12:59Z</time>
      </trkpt>
      <trkpt lat="48.60501" lon="1.97808">
        <ele>110.9</ele>
        <time>2024-10-31T09:13:06Z</time>
      </trkpt>
      <trkpt lat="48.60496" lon="1.9782">
        <ele>110.6</ele>
        <time>2024-10-31T09:13:13Z</time>
      </trkpt>
      <trkpt lat="48.6049" lon="1.97833">
        <ele>110.4</ele>
        <time>2024-10-31T09:13:19Z</time>
      </trkpt>
      <trkpt lat="48.60485" lon="1.97845">
        <ele>110.5</ele>
        <time>2024-10-31T09:13:26Z</time>
      </trkpt>
      <trkpt lat="48.60479" lon="1.97858">
        <ele>110.7</ele>
        <time>2024-10-31T09:13:34Z</time>
      </trkpt>
      <trkpt lat="48.60473" lon="1.97868">
        <ele>110.7</ele>
        <time>2024-10-31T09:13:41Z</time>
      </trkpt>
      <trkpt lat="48.60467" lon="1.97879">
        <ele>110.5</ele>
        <time>2024-10-31T09:13:47Z</time>
      </trkpt>
      <trkpt lat="48.60462" lon="1.97892">
        <ele>110.3</ele>
        <time>2024-10-31T09:13:54Z</time>
      </trkpt>
      <trkpt lat="48.60457" lon="1.97904">
        <ele>110</ele>
        <time>2024-10-31T09:14:00Z</time>
      </trkpt>
      <trkpt lat="48.60451" lon="1.97915">
        <ele>109.8</ele>
        <time>2024-10-31T09:14:06Z</time>
      </trkpt>
      <trkpt lat="48.60445" lon="1.97927">
        <ele>110</ele>
        <time>2024-10-31T09:14:12Z</time>
      </trkpt>
      <trkpt lat="48.60439" lon="1.97938">
        <ele>110</ele>
        <time>2024-10-31T09:14:18Z</time>
      </trkpt>
      <trkpt lat="48.60434" lon="1.9795">
        <ele>109.9</ele>
        <time>2024-10-31T09:14:26Z</time>
      </trkpt>
      <trkpt lat="48.60427" lon="1.97961">
        <ele>109.8</ele>
        <time>2024-10-31T09:14:35Z</time>
      </trkpt>
      <trkpt lat="48.60421" lon="1.97974">
        <ele>109.8</ele>
        <time>2024-10-31T09:14:41Z</time>
      </trkpt>
      <trkpt lat="48.60414" lon="1.97984">
        <ele>109.6</ele>
        <time>2024-10-31T09:14:49Z</time>
      </trkpt>
      <trkpt lat="48.60408" lon="1.97996">
        <ele>109.2</ele>
        <time>2024-10-31T09:14:57Z</time>
      </trkpt>
      <trkpt lat="48.60403" lon="1.98007">
        <ele>108.9</ele>
        <time>2024-10-31T09:15:03Z</time>
      </trkpt>
      <trkpt lat="48.60398" lon="1.98019">
        <ele>108.8</ele>
        <time>2024-10-31T09:15:09Z</time>
      </trkpt>
      <trkpt lat="48.60391" lon="1.98032">
        <ele>108.8</ele>
        <time>2024-10-31T09:15:17Z</time>
      </trkpt>
      <trkpt lat="48.60387" lon="1.98044">
        <ele>108.4</ele>
        <time>2024-10-31T09:15:23Z</time>
      </trkpt>
      <trkpt lat="48.60383" lon="1.98057">
        <ele>108</ele>
        <time>2024-10-31T09:15:28Z</time>
      </trkpt>
      <trkpt lat="48.60377" lon="1.98069">
        <ele>107.5</ele>
        <time>2024-10-31T09:15:36Z</time>
      </trkpt>
      <trkpt lat="48.60373" lon="1.98082">
        <ele>107</ele>
        <time>2024-10-31T09:15:43Z</time>
      </trkpt>
      <trkpt lat="48.60368" lon="1.98094">
        <ele>106.6</ele>
        <time>2024-10-31T09:15:48Z</time>
      </trkpt>
      <trkpt lat="48.60363" lon="1.98105">
        <ele>106.2</ele>
        <time>2024-10-31T09:15:54Z</time>
      </trkpt>
      <trkpt lat="48.60357" lon="1.98116">
        <ele>105.9</ele>
        <time>2024-10-31T09:16:01Z</time>
      </trkpt>
      <trkpt lat="48.60352" lon="1.98129">
        <ele>105.8</ele>
        <time>2024-10-31T09:16:08Z</time>
      </trkpt>
      <trkpt lat="48.60344" lon="1.98136">
        <ele>106.2</ele>
        <time>2024-10-31T09:16:22Z</time>
      </trkpt>
      <trkpt lat="48.60334" lon="1.98134">
        <ele>106.8</ele>
        <time>2024-10-31T09:16:29Z</time>
      </trkpt>
      <trkpt lat="48.60324" lon="1.9813">
        <ele>107.6</ele>
        <time>2024-10-31T09:16:36Z</time>
      </trkpt>
      <trkpt lat="48.60332" lon="1.98139">
        <ele>107.2</ele>
        <time>2024-10-31T09:16:53Z</time>
      </trkpt>
      <trkpt lat="48.60337" lon="1.9815">
        <ele>107</ele>
        <time>2024-10-31T09:17:01Z</time>
      </trkpt>
      <trkpt lat="48.60344" lon="1.98159">
        <ele>106.3</ele>
        <time>2024-10-31T09:17:07Z</time>
      </trkpt>
      <trkpt lat="48.60353" lon="1.98163">
        <ele>105.2</ele>
        <time>2024-10-31T09:17:13Z</time>
      </trkpt>
      <trkpt lat="48.60362" lon="1.98168">
        <ele>104</ele>
        <time>2024-10-31T09:17:21Z</time>
      </trkpt>
      <trkpt lat="48.60371" lon="1.98173">
        <ele>103.6</ele>
        <time>2024-10-31T09:17:30Z</time>
      </trkpt>
      <trkpt lat="48.60377" lon="1.98185">
        <ele>103</ele>
        <time>2024-10-31T09:17:37Z</time>
      </trkpt>
      <trkpt lat="48.60382" lon="1.98196">
        <ele>102.5</ele>
        <time>2024-10-31T09:17:43Z</time>
      </trkpt>
      <trkpt lat="48.6039" lon="1.98207">
        <ele>102</ele>
        <time>2024-10-31T09:17:49Z</time>
      </trkpt>
      <trkpt lat="48.60397" lon="1.98216">
        <ele>102.1</ele>
        <time>2024-10-31T09:17:56Z</time>
      </trkpt>
      <trkpt lat="48.60405" lon="1.98226">
        <ele>102</ele>
        <time>2024-10-31T09:18:04Z</time>
      </trkpt>
      <trkpt lat="48.60412" lon="1.98236">
        <ele>102</ele>
        <time>2024-10-31T09:18:11Z</time>
      </trkpt>
      <trkpt lat="48.6042" lon="1.98243">
        <ele>102</ele>
        <time>2024-10-31T09:18:18Z</time>
      </trkpt>
      <trkpt lat="48.60429" lon="1.9825">
        <ele>102</ele>
        <time>2024-10-31T09:18:26Z</time>
      </trkpt>
      <trkpt lat="48.60434" lon="1.98262">
        <ele>101.6</ele>
        <time>2024-10-31T09:18:35Z</time>
      </trkpt>
      <trkpt lat="48.60442" lon="1.9827">
        <ele>101.3</ele>
        <time>2024-10-31T09:18:42Z</time>
      </trkpt>
      <trkpt lat="48.60451" lon="1.98277">
        <ele>101.3</ele>
        <time>2024-10-31T09:18:49Z</time>
      </trkpt>
      <trkpt lat="48.60457" lon="1.98288">
        <ele>101.3</ele>
        <time>2024-10-31T09:18:56Z</time>
      </trkpt>
      <trkpt lat="48.60465" lon="1.98297">
        <ele>101.2</ele>
        <time>2024-10-31T09:19:02Z</time>
      </trkpt>
      <trkpt lat="48.60473" lon="1.98307">
        <ele>101</ele>
        <time>2024-10-31T09:19:09Z</time>
      </trkpt>
      <trkpt lat="48.60481" lon="1.98314">
        <ele>101.2</ele>
        <time>2024-10-31T09:19:15Z</time>
      </trkpt>
      <trkpt lat="48.60488" lon="1.98323">
        <ele>101.2</ele>
        <time>2024-10-31T09:19:22Z</time>
      </trkpt>
      <trkpt lat="48.60494" lon="1.98334">
        <ele>101</ele>
        <time>2024-10-31T09:19:30Z</time>
      </trkpt>
      <trkpt lat="48.605" lon="1.98347">
        <ele>101</ele>
        <time>2024-10-31T09:19:37Z</time>
      </trkpt>
      <trkpt lat="48.60505" lon="1.98359">
        <ele>101.2</ele>
        <time>2024-10-31T09:19:45Z</time>
      </trkpt>
      <trkpt lat="48.60495" lon="1.98364">
        <ele>100.7</ele>
        <time>2024-10-31T09:19:56Z</time>
      </trkpt>
      <trkpt lat="48.60486" lon="1.98364">
        <ele>100.4</ele>
        <time>2024-10-31T09:20:06Z</time>
      </trkpt>
      <trkpt lat="48.60476" lon="1.98362">
        <ele>100.1</ele>
        <time>2024-10-31T09:20:16Z</time>
      </trkpt>
      <trkpt lat="48.60467" lon="1.98363">
        <ele>100</ele>
        <time>2024-10-31T09:20:25Z</time>
      </trkpt>
      <trkpt lat="48.60457" lon="1.98366">
        <ele>100</ele>
        <time>2024-10-31T09:20:33Z</time>
      </trkpt>
      <trkpt lat="48.60448" lon="1.9837">
        <ele>100</ele>
        <time>2024-10-31T09:20:40Z</time>
      </trkpt>
      <trkpt lat="48.60438" lon="1.98372">
        <ele>100.2</ele>
        <time>2024-10-31T09:20:48Z</time>
      </trkpt>
      <trkpt lat="48.60428" lon="1.98375">
        <ele>100.6</ele>
        <time>2024-10-31T09:20:56Z</time>
      </trkpt>
      <trkpt lat="48.60419" lon="1.98378">
        <ele>100.9</ele>
        <time>2024-10-31T09:21:03Z</time>
      </trkpt>
      <trkpt lat="48.60409" lon="1.98382">
        <ele>101.4</ele>
        <time>2024-10-31T09:21:10Z</time>
      </trkpt>
      <trkpt lat="48.604" lon="1.98387">
        <ele>101.7</ele>
        <time>2024-10-31T09:21:16Z</time>
      </trkpt>
      <trkpt lat="48.6039" lon="1.98393">
        <ele>102</ele>
        <time>2024-10-31T09:21:23Z</time>
      </trkpt>
      <trkpt lat="48.60381" lon="1.98398">
        <ele>102.5</ele>
        <time>2024-10-31T09:21:29Z</time>
      </trkpt>
      <trkpt lat="48.60373" lon="1.98405">
        <ele>103.1</ele>
        <time>2024-10-31T09:21:36Z</time>
      </trkpt>
      <trkpt lat="48.60364" lon="1.98409">
        <ele>103.8</ele>
        <time>2024-10-31T09:21:43Z</time>
      </trkpt>
      <trkpt lat="48.60355" lon="1.98415">
        <ele>104.5</ele>
        <time>2024-10-31T09:21:50Z</time>
      </trkpt>
      <trkpt lat="48.60347" lon="1.98424">
        <ele>105</ele>
        <time>2024-10-31T09:21:58Z</time>
      </trkpt>
      <trkpt lat="48.60339" lon="1.98432">
        <ele>105.6</ele>
        <time>2024-10-31T09:22:07Z</time>
      </trkpt>
      <trkpt lat="48.60331" lon="1.9844">
        <ele>106.1</ele>
        <time>2024-10-31T09:22:13Z</time>
      </trkpt>
      <trkpt lat="48.60323" lon="1.98448">
        <ele>106.2</ele>
        <time>2024-10-31T09:22:20Z</time>
      </trkpt>
      <trkpt lat="48.60315" lon="1.98458">
        <ele>106.2</ele>
        <time>2024-10-31T09:22:25Z</time>
      </trkpt>
      <trkpt lat="48.60309" lon="1.98468">
        <ele>106</ele>
        <time>2024-10-31T09:22:30Z</time>
      </trkpt>
      <trkpt lat="48.60302" lon="1.9848">
        <ele>105.7</ele>
        <time>2024-10-31T09:22:35Z</time>
      </trkpt>
      <trkpt lat="48.60297" lon="1.98492">
        <ele>105.3</ele>
        <time>2024-10-31T09:22:41Z</time>
      </trkpt>
      <trkpt lat="48.60291" lon="1.98503">
        <ele>104.9</ele>
        <time>2024-10-31T09:22:49Z</time>
      </trkpt>
      <trkpt lat="48.60284" lon="1.98514">
        <ele>104.5</ele>
        <time>2024-10-31T09:22:57Z</time>
      </trkpt>
      <trkpt lat="48.60278" lon="1.98525">
        <ele>104.1</ele>
        <time>2024-10-31T09:23:04Z</time>
      </trkpt>
      <trkpt lat="48.6027" lon="1.98533">
        <ele>104.2</ele>
        <time>2024-10-31T09:23:10Z</time>
      </trkpt>
      <trkpt lat="48.60262" lon="1.98542">
        <ele>104.3</ele>
        <time>2024-10-31T09:23:16Z</time>
      </trkpt>
      <trkpt lat="48.60254" lon="1.9855">
        <ele>104.2</ele>
        <time>2024-10-31T09:23:23Z</time>
      </trkpt>
      <trkpt lat="48.60245" lon="1.98557">
        <ele>104.2</ele>
        <time>2024-10-31T09:23:32Z</time>
      </trkpt>
      <trkpt lat="48.60237" lon="1.98565">
        <ele>104.5</ele>
        <time>2024-10-31T09:23:40Z</time>
      </trkpt>
      <trkpt lat="48.6023" lon="1.98573">
        <ele>104.7</ele>
        <time>2024-10-31T09:23:46Z</time>
      </trkpt>
      <trkpt lat="48.60222" lon="1.98582">
        <ele>105</ele>
        <time>2024-10-31T09:23:54Z</time>
      </trkpt>
      <trkpt lat="48.60214" lon="1.9859">
        <ele>105.4</ele>
        <time>2024-10-31T09:24:05Z</time>
      </trkpt>
      <trkpt lat="48.60205" lon="1.98595">
        <ele>105.9</ele>
        <time>2024-10-31T09:24:15Z</time>
      </trkpt>
      <trkpt lat="48.60197" lon="1.98602">
        <ele>106.5</ele>
        <time>2024-10-31T09:24:22Z</time>
      </trkpt>
      <trkpt lat="48.6019" lon="1.98611">
        <ele>107.2</ele>
        <time>2024-10-31T09:24:27Z</time>
      </trkpt>
      <trkpt lat="48.60182" lon="1.9862">
        <ele>107.5</ele>
        <time>2024-10-31T09:24:33Z</time>
      </trkpt>
      <trkpt lat="48.60174" lon="1.98629">
        <ele>107.7</ele>
        <time>2024-10-31T09:24:39Z</time>
      </trkpt>
      <trkpt lat="48.60165" lon="1.9864">
        <ele>108</ele>
        <time>2024-10-31T09:24:46Z</time>
      </trkpt>
      <trkpt lat="48.60157" lon="1.98649">
        <ele>108.3</ele>
        <time>2024-10-31T09:24:52Z</time>
      </trkpt>
      <trkpt lat="48.60149" lon="1.98656">
        <ele>108.6</ele>
        <time>2024-10-31T09:24:59Z</time>
      </trkpt>
      <trkpt lat="48.60141" lon="1.98663">
        <ele>108.9</ele>
        <time>2024-10-31T09:25:06Z</time>
      </trkpt>
      <trkpt lat="48.60133" lon="1.98673">
        <ele>109</ele>
        <time>2024-10-31T09:25:14Z</time>
      </trkpt>
      <trkpt lat="48.60125" lon="1.98681">
        <ele>109</ele>
        <time>2024-10-31T09:25:26Z</time>
      </trkpt>
      <trkpt lat="48.60117" lon="1.98687">
        <ele>109</ele>
        <time>2024-10-31T09:25:57Z</time>
      </trkpt>
      <trkpt lat="48.60108" lon="1.98692">
        <ele>109.1</ele>
        <time>2024-10-31T09:26:54Z</time>
      </trkpt>
      <trkpt lat="48.60099" lon="1.98697">
        <ele>108.9</ele>
        <time>2024-10-31T09:27:05Z</time>
      </trkpt>
      <trkpt lat="48.60091" lon="1.98704">
        <ele>108.6</ele>
        <time>2024-10-31T09:27:14Z</time>
      </trkpt>
      <trkpt lat="48.60083" lon="1.98712">
        <ele>108.3</ele>
        <time>2024-10-31T09:27:22Z</time>
      </trkpt>
      <trkpt lat="48.60073" lon="1.98718">
        <ele>107.8</ele>
        <time>2024-10-31T09:27:29Z</time>
      </trkpt>
      <trkpt lat="48.60064" lon="1.98723">
        <ele>107.3</ele>
        <time>2024-10-31T09:27:36Z</time>
      </trkpt>
      <trkpt lat="48.60055" lon="1.98731">
        <ele>107</ele>
        <time>2024-10-31T09:27:42Z</time>
      </trkpt>
      <trkpt lat="48.60046" lon="1.98736">
        <ele>106.8</ele>
        <time>2024-10-31T09:27:49Z</time>
      </trkpt>
      <trkpt lat="48.60037" lon="1.98742">
        <ele>106.5</ele>
        <time>2024-10-31T09:27:58Z</time>
      </trkpt>
      <trkpt lat="48.60027" lon="1.98744">
        <ele>106.2</ele>
        <time>2024-10-31T09:28:05Z</time>
      </trkpt>
      <trkpt lat="48.60018" lon="1.98747">
        <ele>105.8</ele>
        <time>2024-10-31T09:28:12Z</time>
      </trkpt>
      <trkpt lat="48.60008" lon="1.98744">
        <ele>105.5</ele>
        <time>2024-10-31T09:28:19Z</time>
      </trkpt>
      <trkpt lat="48.59999" lon="1.98747">
        <ele>105.2</ele>
        <time>2024-10-31T09:28:26Z</time>
      </trkpt>
      <trkpt lat="48.59989" lon="1.98746">
        <ele>105.5</ele>
        <time>2024-10-31T09:28:33Z</time>
      </trkpt>
      <trkpt lat="48.5998" lon="1.98749">
        <ele>105.7</ele>
        <time>2024-10-31T09:28:39Z</time>
      </trkpt>
      <trkpt lat="48.5997" lon="1.98751">
        <ele>106</ele>
        <time>2024-10-31T09:28:45Z</time>
      </trkpt>
      <trkpt lat="48.5996" lon="1.98752">
        <ele>105.9</ele>
        <time>2024-10-31T09:28:52Z</time>
      </trkpt>
      <trkpt lat="48.59951" lon="1.98756">
        <ele>105.9</ele>
        <time>2024-10-31T09:28:59Z</time>
      </trkpt>
      <trkpt lat="48.59942" lon="1.9876">
        <ele>106.1</ele>
        <time>2024-10-31T09:29:07Z</time>
      </trkpt>
      <trkpt lat="48.59932" lon="1.98763">
        <ele>106.7</ele>
        <time>2024-10-31T09:29:15Z</time>
      </trkpt>
      <trkpt lat="48.59922" lon="1.98764">
        <ele>107.2</ele>
        <time>2024-10-31T09:29:22Z</time>
      </trkpt>
      <trkpt lat="48.59913" lon="1.98764">
        <ele>107.9</ele>
        <time>2024-10-31T09:29:30Z</time>
      </trkpt>
      <trkpt lat="48.59904" lon="1.98765">
        <ele>108.8</ele>
        <time>2024-10-31T09:29:39Z</time>
      </trkpt>
      <trkpt lat="48.59893" lon="1.98768">
        <ele>109.9</ele>
        <time>2024-10-31T09:29:45Z</time>
      </trkpt>
      <trkpt lat="48.59885" lon="1.98772">
        <ele>110.7</ele>
        <time>2024-10-31T09:29:50Z</time>
      </trkpt>
      <trkpt lat="48.59875" lon="1.98775">
        <ele>111.6</ele>
        <time>2024-10-31T09:29:57Z</time>
      </trkpt>
      <trkpt lat="48.59865" lon="1.98779">
        <ele>112.5</ele>
        <time>2024-10-31T09:30:04Z</time>
      </trkpt>
      <trkpt lat="48.59856" lon="1.98781">
        <ele>113.2</ele>
        <time>2024-10-31T09:30:11Z</time>
      </trkpt>
      <trkpt lat="48.59847" lon="1.98784">
        <ele>113.5</ele>
        <time>2024-10-31T09:30:18Z</time>
      </trkpt>
      <trkpt lat="48.59837" lon="1.98786">
        <ele>113.8</ele>
        <time>2024-10-31T09:30:24Z</time>
      </trkpt>
      <trkpt lat="48.59829" lon="1.98788">
        <ele>113.9</ele>
        <time>2024-10-31T09:30:30Z</time>
      </trkpt>
      <trkpt lat="48.59819" lon="1.98791">
        <ele>113.8</ele>
        <time>2024-10-31T09:30:37Z</time>
      </trkpt>
      <trkpt lat="48.59809" lon="1.98792">
        <ele>113.9</ele>
        <time>2024-10-31T09:30:44Z</time>
      </trkpt>
      <trkpt lat="48.59799" lon="1.98789">
        <ele>114.4</ele>
        <time>2024-10-31T09:30:50Z</time>
      </trkpt>
      <trkpt lat="48.5979" lon="1.98789">
        <ele>114.8</ele>
        <time>2024-10-31T09:30:57Z</time>
      </trkpt>
      <trkpt lat="48.59779" lon="1.98788">
        <ele>115.2</ele>
        <time>2024-10-31T09:31:04Z</time>
      </trkpt>
      <trkpt lat="48.5977" lon="1.98788">
        <ele>115.3</ele>
        <time>2024-10-31T09:31:10Z</time>
      </trkpt>
      <trkpt lat="48.59761" lon="1.98785">
        <ele>115.6</ele>
        <time>2024-10-31T09:31:17Z</time>
      </trkpt>
      <trkpt lat="48.59751" lon="1.98784">
        <ele>115.8</ele>
        <time>2024-10-31T09:31:24Z</time>
      </trkpt>
      <trkpt lat="48.59742" lon="1.98785">
        <ele>116</ele>
        <time>2024-10-31T09:31:31Z</time>
      </trkpt>
      <trkpt lat="48.59732" lon="1.98786">
        <ele>116.4</ele>
        <time>2024-10-31T09:31:39Z</time>
      </trkpt>
      <trkpt lat="48.59721" lon="1.98788">
        <ele>116.7</ele>
        <time>2024-10-31T09:31:45Z</time>
      </trkpt>
      <trkpt lat="48.59711" lon="1.9879">
        <ele>117.1</ele>
        <time>2024-10-31T09:31:52Z</time>
      </trkpt>
      <trkpt lat="48.59702" lon="1.9879">
        <ele>117.6</ele>
        <time>2024-10-31T09:31:58Z</time>
      </trkpt>
      <trkpt lat="48.59692" lon="1.98792">
        <ele>118.1</ele>
        <time>2024-10-31T09:32:06Z</time>
      </trkpt>
      <trkpt lat="48.59683" lon="1.98792">
        <ele>118.6</ele>
        <time>2024-10-31T09:32:13Z</time>
      </trkpt>
      <trkpt lat="48.59673" lon="1.98791">
        <ele>119.1</ele>
        <time>2024-10-31T09:32:21Z</time>
      </trkpt>
      <trkpt lat="48.59664" lon="1.98792">
        <ele>119.7</ele>
        <time>2024-10-31T09:32:28Z</time>
      </trkpt>
      <trkpt lat="48.59654" lon="1.98794">
        <ele>120.5</ele>
        <time>2024-10-31T09:32:35Z</time>
      </trkpt>
      <trkpt lat="48.59644" lon="1.98794">
        <ele>121.2</ele>
        <time>2024-10-31T09:32:43Z</time>
      </trkpt>
      <trkpt lat="48.59634" lon="1.9879">
        <ele>121.8</ele>
        <time>2024-10-31T09:32:51Z</time>
      </trkpt>
      <trkpt lat="48.59625" lon="1.98789">
        <ele>122.4</ele>
        <time>2024-10-31T09:32:59Z</time>
      </trkpt>
      <trkpt lat="48.59616" lon="1.98788">
        <ele>123</ele>
        <time>2024-10-31T09:33:08Z</time>
      </trkpt>
      <trkpt lat="48.59606" lon="1.98787">
        <ele>123.4</ele>
        <time>2024-10-31T09:33:16Z</time>
      </trkpt>
      <trkpt lat="48.59596" lon="1.98789">
        <ele>123.6</ele>
        <time>2024-10-31T09:33:24Z</time>
      </trkpt>
      <trkpt lat="48.59587" lon="1.98792">
        <ele>124</ele>
        <time>2024-10-31T09:33:31Z</time>
      </trkpt>
      <trkpt lat="48.59577" lon="1.98795">
        <ele>124.1</ele>
        <time>2024-10-31T09:33:38Z</time>
      </trkpt>
      <trkpt lat="48.59567" lon="1.98799">
        <ele>124.1</ele>
        <time>2024-10-31T09:33:45Z</time>
      </trkpt>
      <trkpt lat="48.59558" lon="1.98799">
        <ele>123.8</ele>
        <time>2024-10-31T09:33:52Z</time>
      </trkpt>
      <trkpt lat="48.59555" lon="1.98785">
        <ele>123.3</ele>
        <time>2024-10-31T09:34:22Z</time>
      </trkpt>
      <trkpt lat="48.59562" lon="1.98775">
        <ele>123</ele>
        <time>2024-10-31T09:34:31Z</time>
      </trkpt>
      <trkpt lat="48.59572" lon="1.98771">
        <ele>123</ele>
        <time>2024-10-31T09:34:42Z</time>
      </trkpt>
      <trkpt lat="48.59581" lon="1.98766">
        <ele>123</ele>
        <time>2024-10-31T09:34:50Z</time>
      </trkpt>
      <trkpt lat="48.59589" lon="1.9876">
        <ele>122.9</ele>
        <time>2024-10-31T09:34:59Z</time>
      </trkpt>
      <trkpt lat="48.59596" lon="1.98749">
        <ele>122.6</ele>
        <time>2024-10-31T09:35:07Z</time>
      </trkpt>
      <trkpt lat="48.59603" lon="1.98738">
        <ele>122.7</ele>
        <time>2024-10-31T09:35:14Z</time>
      </trkpt>
      <trkpt lat="48.59608" lon="1.98725">
        <ele>123</ele>
        <time>2024-10-31T09:35:23Z</time>
      </trkpt>
      <trkpt lat="48.59616" lon="1.98716">
        <ele>123.4</ele>
        <time>2024-10-31T09:35:31Z</time>
      </trkpt>
      <trkpt lat="48.59623" lon="1.98706">
        <ele>123.9</ele>
        <time>2024-10-31T09:35:39Z</time>
      </trkpt>
      <trkpt lat="48.59631" lon="1.98698">
        <ele>124.1</ele>
        <time>2024-10-31T09:35:46Z</time>
      </trkpt>
      <trkpt lat="48.5964" lon="1.987">
        <ele>123.8</ele>
        <time>2024-10-31T09:36:00Z</time>
      </trkpt>
      <trkpt lat="48.5965" lon="1.98702">
        <ele>123.6</ele>
        <time>2024-10-31T09:36:10Z</time>
      </trkpt>
      <trkpt lat="48.59659" lon="1.98698">
        <ele>123.8</ele>
        <time>2024-10-31T09:36:18Z</time>
      </trkpt>
      <trkpt lat="48.59668" lon="1.9869">
        <ele>124.6</ele>
        <time>2024-10-31T09:36:25Z</time>
      </trkpt>
      <trkpt lat="48.59675" lon="1.9868">
        <ele>125.8</ele>
        <time>2024-10-31T09:36:32Z</time>
      </trkpt>
      <trkpt lat="48.59682" lon="1.98671">
        <ele>127.1</ele>
        <time>2024-10-31T09:36:39Z</time>
      </trkpt>
      <trkpt lat="48.59688" lon="1.9866">
        <ele>128.9</ele>
        <time>2024-10-31T09:36:46Z</time>
      </trkpt>
      <trkpt lat="48.59693" lon="1.98647">
        <ele>131.4</ele>
        <time>2024-10-31T09:36:55Z</time>
      </trkpt>
      <trkpt lat="48.59696" lon="1.98634">
        <ele>133.7</ele>
        <time>2024-10-31T09:37:05Z</time>
      </trkpt>
      <trkpt lat="48.59699" lon="1.98621">
        <ele>135.8</ele>
        <time>2024-10-31T09:37:15Z</time>
      </trkpt>
      <trkpt lat="48.597" lon="1.98607">
        <ele>138.1</ele>
        <time>2024-10-31T09:37:25Z</time>
      </trkpt>
      <trkpt lat="48.59698" lon="1.98593">
        <ele>139.8</ele>
        <time>2024-10-31T09:37:35Z</time>
      </trkpt>
      <trkpt lat="48.59696" lon="1.98579">
        <ele>141.5</ele>
        <time>2024-10-31T09:37:46Z</time>
      </trkpt>
      <trkpt lat="48.59694" lon="1.98565">
        <ele>143</ele>
        <time>2024-10-31T09:37:57Z</time>
      </trkpt>
      <trkpt lat="48.59693" lon="1.9855">
        <ele>144.3</ele>
        <time>2024-10-31T09:38:07Z</time>
      </trkpt>
      <trkpt lat="48.59692" lon="1.98536">
        <ele>145.2</ele>
        <time>2024-10-31T09:38:17Z</time>
      </trkpt>
      <trkpt lat="48.59693" lon="1.98523">
        <ele>146</ele>
        <time>2024-10-31T09:38:27Z</time>
      </trkpt>
      <trkpt lat="48.59693" lon="1.98509">
        <ele>146.6</ele>
        <time>2024-10-31T09:38:39Z</time>
      </trkpt>
      <trkpt lat="48.59693" lon="1.98495">
        <ele>146.9</ele>
        <time>2024-10-31T09:40:43Z</time>
      </trkpt>
      <trkpt lat="48.59696" lon="1.98482">
        <ele>146.9</ele>
        <time>2024-10-31T09:41:02Z</time>
      </trkpt>
      <trkpt lat="48.59694" lon="1.98467">
        <ele>147</ele>
        <time>2024-10-31T09:41:11Z</time>
      </trkpt>
      <trkpt lat="48.59693" lon="1.98453">
        <ele>147</ele>
        <time>2024-10-31T09:41:18Z</time>
      </trkpt>
      <trkpt lat="48.59692" lon="1.98438">
        <ele>146.8</ele>
        <time>2024-10-31T09:41:26Z</time>
      </trkpt>
      <trkpt lat="48.59692" lon="1.98423">
        <ele>146.3</ele>
        <time>2024-10-31T09:41:34Z</time>
      </trkpt>
      <trkpt lat="48.59689" lon="1.98408">
        <ele>145.7</ele>
        <time>2024-10-31T09:41:43Z</time>
      </trkpt>
      <trkpt lat="48.59685" lon="1.98395">
        <ele>145.3</ele>
        <time>2024-10-31T09:41:52Z</time>
      </trkpt>
      <trkpt lat="48.59681" lon="1.98382">
        <ele>144.9</ele>
        <time>2024-10-31T09:41:59Z</time>
      </trkpt>
      <trkpt lat="48.59675" lon="1.98371">
        <ele>144.5</ele>
        <time>2024-10-31T09:42:07Z</time>
      </trkpt>
      <trkpt lat="48.59669" lon="1.9836">
        <ele>144.6</ele>
        <time>2024-10-31T09:42:15Z</time>
      </trkpt>
      <trkpt lat="48.59662" lon="1.9835">
        <ele>144.6</ele>
        <time>2024-10-31T09:42:23Z</time>
      </trkpt>
      <trkpt lat="48.59659" lon="1.98337">
        <ele>144.1</ele>
        <time>2024-10-31T09:42:33Z</time>
      </trkpt>
      <trkpt lat="48.59655" lon="1.98325">
        <ele>143.9</ele>
        <time>2024-10-31T09:42:40Z</time>
      </trkpt>
      <trkpt lat="48.5965" lon="1.98313">
        <ele>144.3</ele>
        <time>2024-10-31T09:42:47Z</time>
      </trkpt>
      <trkpt lat="48.59645" lon="1.983">
        <ele>144.8</ele>
        <time>2024-10-31T09:42:56Z</time>
      </trkpt>
      <trkpt lat="48.59638" lon="1.98289">
        <ele>145.5</ele>
        <time>2024-10-31T09:43:03Z</time>
      </trkpt>
      <trkpt lat="48.59632" lon="1.98279">
        <ele>145.7</ele>
        <time>2024-10-31T09:43:10Z</time>
      </trkpt>
      <trkpt lat="48.59626" lon="1.98267">
        <ele>146.7</ele>
        <time>2024-10-31T09:43:18Z</time>
      </trkpt>
      <trkpt lat="48.59619" lon="1.98258">
        <ele>147.8</ele>
        <time>2024-10-31T09:43:25Z</time>
      </trkpt>
      <trkpt lat="48.59613" lon="1.98247">
        <ele>148.9</ele>
        <time>2024-10-31T09:43:34Z</time>
      </trkpt>
      <trkpt lat="48.59607" lon="1.98237">
        <ele>149.6</ele>
        <time>2024-10-31T09:43:43Z</time>
      </trkpt>
      <trkpt lat="48.59601" lon="1.98226">
        <ele>150.2</ele>
        <time>2024-10-31T09:43:50Z</time>
      </trkpt>
      <trkpt lat="48.59595" lon="1.98216">
        <ele>150.8</ele>
        <time>2024-10-31T09:43:56Z</time>
      </trkpt>
      <trkpt lat="48.59587" lon="1.98206">
        <ele>151.4</ele>
        <time>2024-10-31T09:44:04Z</time>
      </trkpt>
      <trkpt lat="48.5958" lon="1.98198">
        <ele>151.9</ele>
        <time>2024-10-31T09:44:11Z</time>
      </trkpt>
      <trkpt lat="48.59572" lon="1.9819">
        <ele>152.2</ele>
        <time>2024-10-31T09:44:19Z</time>
      </trkpt>
      <trkpt lat="48.59565" lon="1.98179">
        <ele>152.5</ele>
        <time>2024-10-31T09:44:26Z</time>
      </trkpt>
      <trkpt lat="48.59561" lon="1.98166">
        <ele>153</ele>
        <time>2024-10-31T09:44:34Z</time>
      </trkpt>
      <trkpt lat="48.59556" lon="1.98153">
        <ele>153.5</ele>
        <time>2024-10-31T09:44:41Z</time>
      </trkpt>
      <trkpt lat="48.59551" lon="1.98141">
        <ele>153.8</ele>
        <time>2024-10-31T09:44:49Z</time>
      </trkpt>
      <trkpt lat="48.59545" lon="1.9813">
        <ele>154.1</ele>
        <time>2024-10-31T09:44:57Z</time>
      </trkpt>
      <trkpt lat="48.59539" lon="1.98118">
        <ele>154.6</ele>
        <time>2024-10-31T09:45:05Z</time>
      </trkpt>
      <trkpt lat="48.59536" lon="1.98105">
        <ele>155.4</ele>
        <time>2024-10-31T09:45:14Z</time>
      </trkpt>
      <trkpt lat="48.59534" lon="1.9809">
        <ele>156.3</ele>
        <time>2024-10-31T09:45:22Z</time>
      </trkpt>
      <trkpt lat="48.59531" lon="1.98077">
        <ele>156.9</ele>
        <time>2024-10-31T09:45:29Z</time>
      </trkpt>
      <trkpt lat="48.59528" lon="1.98063">
        <ele>157</ele>
        <time>2024-10-31T09:45:36Z</time>
      </trkpt>
      <trkpt lat="48.59526" lon="1.98049">
        <ele>157</ele>
        <time>2024-10-31T09:45:44Z</time>
      </trkpt>
      <trkpt lat="48.59525" lon="1.98035">
        <ele>157.1</ele>
        <time>2024-10-31T09:45:52Z</time>
      </trkpt>
      <trkpt lat="48.59524" lon="1.98021">
        <ele>157.3</ele>
        <time>2024-10-31T09:45:59Z</time>
      </trkpt>
      <trkpt lat="48.59519" lon="1.98008">
        <ele>157.8</ele>
        <time>2024-10-31T09:46:08Z</time>
      </trkpt>
      <trkpt lat="48.59511" lon="1.98">
        <ele>158</ele>
        <time>2024-10-31T09:46:15Z</time>
      </trkpt>
      <trkpt lat="48.59501" lon="1.98001">
        <ele>158</ele>
        <time>2024-10-31T09:46:23Z</time>
      </trkpt>
      <trkpt lat="48.59491" lon="1.98006">
        <ele>158.3</ele>
        <time>2024-10-31T09:46:36Z</time>
      </trkpt>
      <trkpt lat="48.59484" lon="1.98015">
        <ele>158.6</ele>
        <time>2024-10-31T09:46:44Z</time>
      </trkpt>
      <trkpt lat="48.59476" lon="1.98025">
        <ele>158.9</ele>
        <time>2024-10-31T09:46:50Z</time>
      </trkpt>
      <trkpt lat="48.59468" lon="1.98035">
        <ele>158.7</ele>
        <time>2024-10-31T09:46:58Z</time>
      </trkpt>
      <trkpt lat="48.59461" lon="1.98045">
        <ele>158.4</ele>
        <time>2024-10-31T09:47:06Z</time>
      </trkpt>
      <trkpt lat="48.59453" lon="1.98052">
        <ele>158.1</ele>
        <time>2024-10-31T09:47:12Z</time>
      </trkpt>
      <trkpt lat="48.59445" lon="1.98061">
        <ele>157.8</ele>
        <time>2024-10-31T09:47:19Z</time>
      </trkpt>
      <trkpt lat="48.59438" lon="1.98072">
        <ele>157.3</ele>
        <time>2024-10-31T09:47:28Z</time>
      </trkpt>
      <trkpt lat="48.5943" lon="1.9808">
        <ele>156.7</ele>
        <time>2024-10-31T09:47:36Z</time>
      </trkpt>
      <trkpt lat="48.5942" lon="1.98084">
        <ele>156.1</ele>
        <time>2024-10-31T09:47:42Z</time>
      </trkpt>
      <trkpt lat="48.5941" lon="1.98084">
        <ele>155.9</ele>
        <time>2024-10-31T09:47:49Z</time>
      </trkpt>
      <trkpt lat="48.594" lon="1.98081">
        <ele>156.1</ele>
        <time>2024-10-31T09:47:56Z</time>
      </trkpt>
      <trkpt lat="48.59391" lon="1.98073">
        <ele>156.4</ele>
        <time>2024-10-31T09:48:03Z</time>
      </trkpt>
      <trkpt lat="48.59382" lon="1.98068">
        <ele>156.1</ele>
        <time>2024-10-31T09:48:11Z</time>
      </trkpt>
      <trkpt lat="48.59374" lon="1.9806">
        <ele>156.1</ele>
        <time>2024-10-31T09:48:18Z</time>
      </trkpt>
      <trkpt lat="48.59368" lon="1.98048">
        <ele>156.8</ele>
        <time>2024-10-31T09:48:26Z</time>
      </trkpt>
      <trkpt lat="48.59362" lon="1.98035">
        <ele>157.5</ele>
        <time>2024-10-31T09:48:33Z</time>
      </trkpt>
      <trkpt lat="48.59358" lon="1.98021">
        <ele>157.7</ele>
        <time>2024-10-31T09:48:41Z</time>
      </trkpt>
      <trkpt lat="48.5936" lon="1.98007">
        <ele>157.8</ele>
        <time>2024-10-31T09:48:51Z</time>
      </trkpt>
      <trkpt lat="48.5936" lon="1.97993">
        <ele>157.9</ele>
        <time>2024-10-31T09:48:57Z</time>
      </trkpt>
      <trkpt lat="48.59363" lon="1.97979">
        <ele>158.1</ele>
        <time>2024-10-31T09:49:06Z</time>
      </trkpt>
      <trkpt lat="48.59366" lon="1.97966">
        <ele>158</ele>
        <time>2024-10-31T09:49:14Z</time>
      </trkpt>
      <trkpt lat="48.59367" lon="1.9795">
        <ele>157.6</ele>
        <time>2024-10-31T09:49:21Z</time>
      </trkpt>
      <trkpt lat="48.59368" lon="1.97936">
        <ele>157.2</ele>
        <time>2024-10-31T09:49:27Z</time>
      </trkpt>
      <trkpt lat="48.59365" lon="1.97923">
        <ele>156.6</ele>
        <time>2024-10-31T09:49:33Z</time>
      </trkpt>
      <trkpt lat="48.59364" lon="1.97907">
        <ele>156.6</ele>
        <time>2024-10-31T09:49:39Z</time>
      </trkpt>
      <trkpt lat="48.59363" lon="1.97892">
        <ele>157</ele>
        <time>2024-10-31T09:49:45Z</time>
      </trkpt>
      <trkpt lat="48.5936" lon="1.97877">
        <ele>156.8</ele>
        <time>2024-10-31T09:49:51Z</time>
      </trkpt>
      <trkpt lat="48.59357" lon="1.97864">
        <ele>156.4</ele>
        <time>2024-10-31T09:49:57Z</time>
      </trkpt>
      <trkpt lat="48.59355" lon="1.9785">
        <ele>156.3</ele>
        <time>2024-10-31T09:50:04Z</time>
      </trkpt>
      <trkpt lat="48.59353" lon="1.97836">
        <ele>156.3</ele>
        <time>2024-10-31T09:50:12Z</time>
      </trkpt>
      <trkpt lat="48.59348" lon="1.97824">
        <ele>156.2</ele>
        <time>2024-10-31T09:50:18Z</time>
      </trkpt>
      <trkpt lat="48.59343" lon="1.9781">
        <ele>156.3</ele>
        <time>2024-10-31T09:50:25Z</time>
      </trkpt>
      <trkpt lat="48.59341" lon="1.97795">
        <ele>156.3</ele>
        <time>2024-10-31T09:50:33Z</time>
      </trkpt>
      <trkpt lat="48.59341" lon="1.97781">
        <ele>156.3</ele>
        <time>2024-10-31T09:50:40Z</time>
      </trkpt>
      <trkpt lat="48.59342" lon="1.97767">
        <ele>156.3</ele>
        <time>2024-10-31T09:50:48Z</time>
      </trkpt>
      <trkpt lat="48.59346" lon="1.97754">
        <ele>156.5</ele>
        <time>2024-10-31T09:50:57Z</time>
      </trkpt>
      <trkpt lat="48.5935" lon="1.9774">
        <ele>156.6</ele>
        <time>2024-10-31T09:51:05Z</time>
      </trkpt>
      <trkpt lat="48.59354" lon="1.97727">
        <ele>156.7</ele>
        <time>2024-10-31T09:51:12Z</time>
      </trkpt>
      <trkpt lat="48.59363" lon="1.97724">
        <ele>157</ele>
        <time>2024-10-31T09:51:21Z</time>
      </trkpt>
      <trkpt lat="48.59373" lon="1.9772">
        <ele>156.9</ele>
        <time>2024-10-31T09:51:30Z</time>
      </trkpt>
      <trkpt lat="48.59381" lon="1.97728">
        <ele>157.1</ele>
        <time>2024-10-31T09:51:47Z</time>
      </trkpt>
      <trkpt lat="48.59389" lon="1.97736">
        <ele>157.5</ele>
        <time>2024-10-31T09:51:56Z</time>
      </trkpt>
      <trkpt lat="48.59398" lon="1.97735">
        <ele>157.1</ele>
        <time>2024-10-31T09:52:37Z</time>
      </trkpt>
      <trkpt lat="48.59407" lon="1.9774">
        <ele>157</ele>
        <time>2024-10-31T09:53:48Z</time>
      </trkpt>
      <trkpt lat="48.59415" lon="1.97734">
        <ele>156.5</ele>
        <time>2024-10-31T09:54:06Z</time>
      </trkpt>
      <trkpt lat="48.59425" lon="1.97731">
        <ele>155.8</ele>
        <time>2024-10-31T09:54:24Z</time>
      </trkpt>
      <trkpt lat="48.59427" lon="1.97717">
        <ele>154.9</ele>
        <time>2024-10-31T09:54:41Z</time>
      </trkpt>
      <trkpt lat="48.59428" lon="1.97703">
        <ele>153.8</ele>
        <time>2024-10-31T09:54:49Z</time>
      </trkpt>
      <trkpt lat="48.59425" lon="1.97688">
        <ele>152.9</ele>
        <time>2024-10-31T09:54:59Z</time>
      </trkpt>
      <trkpt lat="48.59423" lon="1.97674">
        <ele>151.9</ele>
        <time>2024-10-31T09:55:06Z</time>
      </trkpt>
      <trkpt lat="48.59425" lon="1.9766">
        <ele>150.7</ele>
        <time>2024-10-31T09:55:13Z</time>
      </trkpt>
      <trkpt lat="48.59425" lon="1.97644">
        <ele>149.5</ele>
        <time>2024-10-31T09:55:21Z</time>
      </trkpt>
      <trkpt lat="48.59432" lon="1.97652">
        <ele>149.3</ele>
        <time>2024-10-31T09:55:32Z</time>
      </trkpt>
      <trkpt lat="48.59442" lon="1.9765">
        <ele>148.1</ele>
        <time>2024-10-31T09:55:46Z</time>
      </trkpt>
      <trkpt lat="48.59445" lon="1.97664">
        <ele>148.8</ele>
        <time>2024-10-31T09:56:06Z</time>
      </trkpt>
      <trkpt lat="48.59452" lon="1.97675">
        <ele>149.4</ele>
        <time>2024-10-31T09:56:17Z</time>
      </trkpt>
      <trkpt lat="48.5946" lon="1.97681">
        <ele>149.4</ele>
        <time>2024-10-31T09:56:29Z</time>
      </trkpt>
      <trkpt lat="48.59468" lon="1.97687">
        <ele>149.5</ele>
        <time>2024-10-31T09:56:34Z</time>
      </trkpt>
      <trkpt lat="48.59477" lon="1.97693">
        <ele>149.6</ele>
        <time>2024-10-31T09:56:41Z</time>
      </trkpt>
      <trkpt lat="48.59487" lon="1.97695">
        <ele>149</ele>
        <time>2024-10-31T09:56:47Z</time>
      </trkpt>
      <trkpt lat="48.59497" lon="1.97697">
        <ele>148.4</ele>
        <time>2024-10-31T09:56:52Z</time>
      </trkpt>
      <trkpt lat="48.59504" lon="1.97705">
        <ele>148.4</ele>
        <time>2024-10-31T09:57:00Z</time>
      </trkpt>
      <trkpt lat="48.59515" lon="1.97711">
        <ele>148.1</ele>
        <time>2024-10-31T09:57:10Z</time>
      </trkpt>
      <trkpt lat="48.59525" lon="1.97714">
        <ele>147.5</ele>
        <time>2024-10-31T09:57:15Z</time>
      </trkpt>
      <trkpt lat="48.59535" lon="1.97718">
        <ele>146.9</ele>
        <time>2024-10-31T09:57:21Z</time>
      </trkpt>
      <trkpt lat="48.59544" lon="1.97723">
        <ele>146.3</ele>
        <time>2024-10-31T09:57:26Z</time>
      </trkpt>
      <trkpt lat="48.59553" lon="1.97729">
        <ele>145.8</ele>
        <time>2024-10-31T09:57:33Z</time>
      </trkpt>
      <trkpt lat="48.59561" lon="1.97733">
        <ele>145</ele>
        <time>2024-10-31T09:57:38Z</time>
      </trkpt>
      <trkpt lat="48.59572" lon="1.97738">
        <ele>143.8</ele>
        <time>2024-10-31T09:57:43Z</time>
      </trkpt>
      <trkpt lat="48.59583" lon="1.97742">
        <ele>142.5</ele>
        <time>2024-10-31T09:57:50Z</time>
      </trkpt>
      <trkpt lat="48.59593" lon="1.97747">
        <ele>141.4</ele>
        <time>2024-10-31T09:57:55Z</time>
      </trkpt>
      <trkpt lat="48.59602" lon="1.97752">
        <ele>140.3</ele>
        <time>2024-10-31T09:58:03Z</time>
      </trkpt>
      <trkpt lat="48.59611" lon="1.97758">
        <ele>139.1</ele>
        <time>2024-10-31T09:58:10Z</time>
      </trkpt>
      <trkpt lat="48.59618" lon="1.97766">
        <ele>137.8</ele>
        <time>2024-10-31T09:58:18Z</time>
      </trkpt>
      <trkpt lat="48.59627" lon="1.9777">
        <ele>136.3</ele>
        <time>2024-10-31T09:58:29Z</time>
      </trkpt>
      <trkpt lat="48.59636" lon="1.97778">
        <ele>134.6</ele>
        <time>2024-10-31T09:58:49Z</time>
      </trkpt>
      <trkpt lat="48.59643" lon="1.97785">
        <ele>133.5</ele>
        <time>2024-10-31T09:58:55Z</time>
      </trkpt>
      <trkpt lat="48.5965" lon="1.97797">
        <ele>132.8</ele>
        <time>2024-10-31T09:59:04Z</time>
      </trkpt>
      <trkpt lat="48.59657" lon="1.97809">
        <ele>132.2</ele>
        <time>2024-10-31T09:59:10Z</time>
      </trkpt>
      <trkpt lat="48.59664" lon="1.97818">
        <ele>131.8</ele>
        <time>2024-10-31T09:59:16Z</time>
      </trkpt>
      <trkpt lat="48.5967" lon="1.97829">
        <ele>131.6</ele>
        <time>2024-10-31T09:59:22Z</time>
      </trkpt>
      <trkpt lat="48.5968" lon="1.97835">
        <ele>131.1</ele>
        <time>2024-10-31T09:59:27Z</time>
      </trkpt>
      <trkpt lat="48.59689" lon="1.97842">
        <ele>130.8</ele>
        <time>2024-10-31T09:59:36Z</time>
      </trkpt>
      <trkpt lat="48.59696" lon="1.97851">
        <ele>130.5</ele>
        <time>2024-10-31T09:59:42Z</time>
      </trkpt>
      <trkpt lat="48.59704" lon="1.97857">
        <ele>130.2</ele>
        <time>2024-10-31T09:59:47Z</time>
      </trkpt>
      <trkpt lat="48.59711" lon="1.97867">
        <ele>130.2</ele>
        <time>2024-10-31T09:59:54Z</time>
      </trkpt>
      <trkpt lat="48.59721" lon="1.97872">
        <ele>129.9</ele>
        <time>2024-10-31T09:59:59Z</time>
      </trkpt>
      <trkpt lat="48.59732" lon="1.97876">
        <ele>129.7</ele>
        <time>2024-10-31T10:00:04Z</time>
      </trkpt>
      <trkpt lat="48.5974" lon="1.9788">
        <ele>129.7</ele>
        <time>2024-10-31T10:00:08Z</time>
      </trkpt>
      <trkpt lat="48.59749" lon="1.97887">
        <ele>129.9</ele>
        <time>2024-10-31T10:00:13Z</time>
      </trkpt>
      <trkpt lat="48.59758" lon="1.97895">
        <ele>129.6</ele>
        <time>2024-10-31T10:00:19Z</time>
      </trkpt>
      <trkpt lat="48.59766" lon="1.97903">
        <ele>129.4</ele>
        <time>2024-10-31T10:00:23Z</time>
      </trkpt>
      <trkpt lat="48.59776" lon="1.97909">
        <ele>129.5</ele>
        <time>2024-10-31T10:00:27Z</time>
      </trkpt>
      <trkpt lat="48.59786" lon="1.97915">
        <ele>130.2</ele>
        <time>2024-10-31T10:00:30Z</time>
      </trkpt>
      <trkpt lat="48.59796" lon="1.97923">
        <ele>131.1</ele>
        <time>2024-10-31T10:00:34Z</time>
      </trkpt>
      <trkpt lat="48.59804" lon="1.97929">
        <ele>132.3</ele>
        <time>2024-10-31T10:00:37Z</time>
      </trkpt>
      <trkpt lat="48.59814" lon="1.97936">
        <ele>133.9</ele>
        <time>2024-10-31T10:00:41Z</time>
      </trkpt>
      <trkpt lat="48.59822" lon="1.97943">
        <ele>135.6</ele>
        <time>2024-10-31T10:00:45Z</time>
      </trkpt>
      <trkpt lat="48.59831" lon="1.97951">
        <ele>137.4</ele>
        <time>2024-10-31T10:00:49Z</time>
      </trkpt>
      <trkpt lat="48.59839" lon="1.9796">
        <ele>138.9</ele>
        <time>2024-10-31T10:00:54Z</time>
      </trkpt>
      <trkpt lat="48.59847" lon="1.97971">
        <ele>140.8</ele>
        <time>2024-10-31T10:01:01Z</time>
      </trkpt>
      <trkpt lat="48.59854" lon="1.9798">
        <ele>142.1</ele>
        <time>2024-10-31T10:01:08Z</time>
      </trkpt>
      <trkpt lat="48.59863" lon="1.97985">
        <ele>142.9</ele>
        <time>2024-10-31T10:01:18Z</time>
      </trkpt>
      <trkpt lat="48.59869" lon="1.97975">
        <ele>141.9</ele>
        <time>2024-10-31T10:01:34Z</time>
      </trkpt>
      <trkpt lat="48.59871" lon="1.97961">
        <ele>140.2</ele>
        <time>2024-10-31T10:01:53Z</time>
      </trkpt>
      <trkpt lat="48.59879" lon="1.97953">
        <ele>139</ele>
        <time>2024-10-31T10:02:01Z</time>
      </trkpt>
      <trkpt lat="48.59881" lon="1.97939">
        <ele>137.2</ele>
        <time>2024-10-31T10:02:12Z</time>
      </trkpt>
      <trkpt lat="48.59887" lon="1.97926">
        <ele>135.4</ele>
        <time>2024-10-31T10:02:21Z</time>
      </trkpt>
      <trkpt lat="48.59893" lon="1.97915">
        <ele>133.7</ele>
        <time>2024-10-31T10:02:30Z</time>
      </trkpt>
      <trkpt lat="48.59896" lon="1.97902">
        <ele>132</ele>
        <time>2024-10-31T10:02:43Z</time>
      </trkpt>
      <trkpt lat="48.59903" lon="1.97891">
        <ele>130.3</ele>
        <time>2024-10-31T10:02:53Z</time>
      </trkpt>
      <trkpt lat="48.59907" lon="1.97879">
        <ele>129</ele>
        <time>2024-10-31T10:03:02Z</time>
      </trkpt>
      <trkpt lat="48.59911" lon="1.97866">
        <ele>127.8</ele>
        <time>2024-10-31T10:03:13Z</time>
      </trkpt>
      <trkpt lat="48.59917" lon="1.97855">
        <ele>126.8</ele>
        <time>2024-10-31T10:03:22Z</time>
      </trkpt>
      <trkpt lat="48.59922" lon="1.97844">
        <ele>126</ele>
        <time>2024-10-31T10:03:31Z</time>
      </trkpt>
      <trkpt lat="48.59928" lon="1.97831">
        <ele>125.1</ele>
        <time>2024-10-31T10:03:39Z</time>
      </trkpt>
      <trkpt lat="48.59933" lon="1.97819">
        <ele>124.1</ele>
        <time>2024-10-31T10:03:47Z</time>
      </trkpt>
      <trkpt lat="48.59939" lon="1.97807">
        <ele>123.3</ele>
        <time>2024-10-31T10:03:55Z</time>
      </trkpt>
      <trkpt lat="48.59945" lon="1.97795">
        <ele>122.6</ele>
        <time>2024-10-31T10:04:03Z</time>
      </trkpt>
      <trkpt lat="48.59949" lon="1.97783">
        <ele>121.8</ele>
        <time>2024-10-31T10:04:10Z</time>
      </trkpt>
      <trkpt lat="48.59954" lon="1.97771">
        <ele>121</ele>
        <time>2024-10-31T10:04:18Z</time>
      </trkpt>
      <trkpt lat="48.5996" lon="1.97758">
        <ele>119.8</ele>
        <time>2024-10-31T10:04:26Z</time>
      </trkpt>
      <trkpt lat="48.59961" lon="1.97744">
        <ele>118.9</ele>
        <time>2024-10-31T10:04:34Z</time>
      </trkpt>
      <trkpt lat="48.59953" lon="1.97736">
        <ele>119.2</ele>
        <time>2024-10-31T10:04:47Z</time>
      </trkpt>
      <trkpt lat="48.59945" lon="1.9773">
        <ele>119.6</ele>
        <time>2024-10-31T10:04:56Z</time>
      </trkpt>
      <trkpt lat="48.59936" lon="1.97726">
        <ele>119.2</ele>
        <time>2024-10-31T10:05:05Z</time>
      </trkpt>
      <trkpt lat="48.59926" lon="1.9772">
        <ele>118.9</ele>
        <time>2024-10-31T10:05:12Z</time>
      </trkpt>
      <trkpt lat="48.59918" lon="1.97715">
        <ele>118.7</ele>
        <time>2024-10-31T10:05:21Z</time>
      </trkpt>
      <trkpt lat="48.59909" lon="1.97708">
        <ele>118.5</ele>
        <time>2024-10-31T10:05:31Z</time>
      </trkpt>
      <trkpt lat="48.59901" lon="1.977">
        <ele>118.2</ele>
        <time>2024-10-31T10:05:41Z</time>
      </trkpt>
      <trkpt lat="48.59894" lon="1.97693">
        <ele>118</ele>
        <time>2024-10-31T10:05:49Z</time>
      </trkpt>
      <trkpt lat="48.59884" lon="1.97688">
        <ele>118.1</ele>
        <time>2024-10-31T10:05:57Z</time>
      </trkpt>
      <trkpt lat="48.59875" lon="1.97686">
        <ele>118.4</ele>
        <time>2024-10-31T10:06:04Z</time>
      </trkpt>
      <trkpt lat="48.59865" lon="1.97685">
        <ele>118.6</ele>
        <time>2024-10-31T10:06:11Z</time>
      </trkpt>
      <trkpt lat="48.59856" lon="1.9768">
        <ele>118.6</ele>
        <time>2024-10-31T10:06:17Z</time>
      </trkpt>
      <trkpt lat="48.59846" lon="1.97674">
        <ele>118.7</ele>
        <time>2024-10-31T10:06:24Z</time>
      </trkpt>
      <trkpt lat="48.59839" lon="1.97666">
        <ele>118.8</ele>
        <time>2024-10-31T10:06:32Z</time>
      </trkpt>
      <trkpt lat="48.59831" lon="1.97659">
        <ele>119.2</ele>
        <time>2024-10-31T10:06:39Z</time>
      </trkpt>
      <trkpt lat="48.59824" lon="1.97651">
        <ele>119.7</ele>
        <time>2024-10-31T10:06:46Z</time>
      </trkpt>
      <trkpt lat="48.59815" lon="1.97648">
        <ele>120.3</ele>
        <time>2024-10-31T10:06:52Z</time>
      </trkpt>
      <trkpt lat="48.59806" lon="1.97645">
        <ele>121</ele>
        <time>2024-10-31T10:06:58Z</time>
      </trkpt>
      <trkpt lat="48.59797" lon="1.9764">
        <ele>121.6</ele>
        <time>2024-10-31T10:07:05Z</time>
      </trkpt>
      <trkpt lat="48.59789" lon="1.97634">
        <ele>122.1</ele>
        <time>2024-10-31T10:07:12Z</time>
      </trkpt>
      <trkpt lat="48.59781" lon="1.97625">
        <ele>122.7</ele>
        <time>2024-10-31T10:07:20Z</time>
      </trkpt>
      <trkpt lat="48.59773" lon="1.97617">
        <ele>123.2</ele>
        <time>2024-10-31T10:07:27Z</time>
      </trkpt>
      <trkpt lat="48.59765" lon="1.97608">
        <ele>123.4</ele>
        <time>2024-10-31T10:07:34Z</time>
      </trkpt>
      <trkpt lat="48.59755" lon="1.97603">
        <ele>123.8</ele>
        <time>2024-10-31T10:07:42Z</time>
      </trkpt>
      <trkpt lat="48.59746" lon="1.97598">
        <ele>124.2</ele>
        <time>2024-10-31T10:07:49Z</time>
      </trkpt>
      <trkpt lat="48.59737" lon="1.97593">
        <ele>124.7</ele>
        <time>2024-10-31T10:07:57Z</time>
      </trkpt>
      <trkpt lat="48.59728" lon="1.97588">
        <ele>124.9</ele>
        <time>2024-10-31T10:08:04Z</time>
      </trkpt>
      <trkpt lat="48.59718" lon="1.97581">
        <ele>125.2</ele>
        <time>2024-10-31T10:08:11Z</time>
      </trkpt>
      <trkpt lat="48.5971" lon="1.97576">
        <ele>125.6</ele>
        <time>2024-10-31T10:08:17Z</time>
      </trkpt>
      <trkpt lat="48.59703" lon="1.97567">
        <ele>125.8</ele>
        <time>2024-10-31T10:08:24Z</time>
      </trkpt>
      <trkpt lat="48.59695" lon="1.97559">
        <ele>126.1</ele>
        <time>2024-10-31T10:08:30Z</time>
      </trkpt>
      <trkpt lat="48.59686" lon="1.97552">
        <ele>126.9</ele>
        <time>2024-10-31T10:08:37Z</time>
      </trkpt>
      <trkpt lat="48.59677" lon="1.97549">
        <ele>127.7</ele>
        <time>2024-10-31T10:08:43Z</time>
      </trkpt>
      <trkpt lat="48.59668" lon="1.97547">
        <ele>128.6</ele>
        <time>2024-10-31T10:08:52Z</time>
      </trkpt>
      <trkpt lat="48.5966" lon="1.97539">
        <ele>128.9</ele>
        <time>2024-10-31T10:08:59Z</time>
      </trkpt>
      <trkpt lat="48.59651" lon="1.97533">
        <ele>129.3</ele>
        <time>2024-10-31T10:09:06Z</time>
      </trkpt>
      <trkpt lat="48.59641" lon="1.97529">
        <ele>129.9</ele>
        <time>2024-10-31T10:09:12Z</time>
      </trkpt>
      <trkpt lat="48.59631" lon="1.97525">
        <ele>130.2</ele>
        <time>2024-10-31T10:09:20Z</time>
      </trkpt>
      <trkpt lat="48.59623" lon="1.97518">
        <ele>130.4</ele>
        <time>2024-10-31T10:09:28Z</time>
      </trkpt>
      <trkpt lat="48.59615" lon="1.9751">
        <ele>130.3</ele>
        <time>2024-10-31T10:09:36Z</time>
      </trkpt>
      <trkpt lat="48.59606" lon="1.97505">
        <ele>130.4</ele>
        <time>2024-10-31T10:09:43Z</time>
      </trkpt>
      <trkpt lat="48.59597" lon="1.97499">
        <ele>130.5</ele>
        <time>2024-10-31T10:09:50Z</time>
      </trkpt>
      <trkpt lat="48.59588" lon="1.97497">
        <ele>130.8</ele>
        <time>2024-10-31T10:09:57Z</time>
      </trkpt>
      <trkpt lat="48.59579" lon="1.97489">
        <ele>131.3</ele>
        <time>2024-10-31T10:10:05Z</time>
      </trkpt>
      <trkpt lat="48.5957" lon="1.97483">
        <ele>131.9</ele>
        <time>2024-10-31T10:10:12Z</time>
      </trkpt>
      <trkpt lat="48.59561" lon="1.97478">
        <ele>132.6</ele>
        <time>2024-10-31T10:10:19Z</time>
      </trkpt>
      <trkpt lat="48.59553" lon="1.97474">
        <ele>133.3</ele>
        <time>2024-10-31T10:10:26Z</time>
      </trkpt>
      <trkpt lat="48.59544" lon="1.97467">
        <ele>134.4</ele>
        <time>2024-10-31T10:10:33Z</time>
      </trkpt>
      <trkpt lat="48.59535" lon="1.97461">
        <ele>135.3</ele>
        <time>2024-10-31T10:10:40Z</time>
      </trkpt>
      <trkpt lat="48.59526" lon="1.97456">
        <ele>136.1</ele>
        <time>2024-10-31T10:10:47Z</time>
      </trkpt>
      <trkpt lat="48.59516" lon="1.97454">
        <ele>137</ele>
        <time>2024-10-31T10:10:54Z</time>
      </trkpt>
      <trkpt lat="48.59508" lon="1.97449">
        <ele>137.5</ele>
        <time>2024-10-31T10:11:01Z</time>
      </trkpt>
      <trkpt lat="48.59498" lon="1.97449">
        <ele>138.2</ele>
        <time>2024-10-31T10:11:09Z</time>
      </trkpt>
      <trkpt lat="48.59489" lon="1.97443">
        <ele>138</ele>
        <time>2024-10-31T10:11:17Z</time>
      </trkpt>
      <trkpt lat="48.59485" lon="1.9743">
        <ele>138</ele>
        <time>2024-10-31T10:11:25Z</time>
      </trkpt>
      <trkpt lat="48.59481" lon="1.97418">
        <ele>138</ele>
        <time>2024-10-31T10:12:29Z</time>
      </trkpt>
      <trkpt lat="48.59476" lon="1.97406">
        <ele>138.1</ele>
        <time>2024-10-31T10:12:39Z</time>
      </trkpt>
      <trkpt lat="48.59473" lon="1.97393">
        <ele>138</ele>
        <time>2024-10-31T10:12:48Z</time>
      </trkpt>
      <trkpt lat="48.59471" lon="1.97379">
        <ele>138.6</ele>
        <time>2024-10-31T10:12:57Z</time>
      </trkpt>
      <trkpt lat="48.59468" lon="1.97365">
        <ele>139.3</ele>
        <time>2024-10-31T10:13:05Z</time>
      </trkpt>
      <trkpt lat="48.59464" lon="1.97351">
        <ele>140.3</ele>
        <time>2024-10-31T10:13:12Z</time>
      </trkpt>
      <trkpt lat="48.59462" lon="1.97336">
        <ele>141.9</ele>
        <time>2024-10-31T10:13:19Z</time>
      </trkpt>
      <trkpt lat="48.59462" lon="1.97321">
        <ele>144</ele>
        <time>2024-10-31T10:13:27Z</time>
      </trkpt>
      <trkpt lat="48.5946" lon="1.97307">
        <ele>145.9</ele>
        <time>2024-10-31T10:13:35Z</time>
      </trkpt>
      <trkpt lat="48.59458" lon="1.97294">
        <ele>147.6</ele>
        <time>2024-10-31T10:13:46Z</time>
      </trkpt>
      <trkpt lat="48.59451" lon="1.97285">
        <ele>148.7</ele>
        <time>2024-10-31T10:14:08Z</time>
      </trkpt>
      <trkpt lat="48.59443" lon="1.97277">
        <ele>150.1</ele>
        <time>2024-10-31T10:14:19Z</time>
      </trkpt>
      <trkpt lat="48.59437" lon="1.97267">
        <ele>151.1</ele>
        <time>2024-10-31T10:14:28Z</time>
      </trkpt>
      <trkpt lat="48.59431" lon="1.97254">
        <ele>152.4</ele>
        <time>2024-10-31T10:14:37Z</time>
      </trkpt>
      <trkpt lat="48.59424" lon="1.97244">
        <ele>153.1</ele>
        <time>2024-10-31T10:14:45Z</time>
      </trkpt>
      <trkpt lat="48.59421" lon="1.9723">
        <ele>154.3</ele>
        <time>2024-10-31T10:14:53Z</time>
      </trkpt>
      <trkpt lat="48.59426" lon="1.97218">
        <ele>155.5</ele>
        <time>2024-10-31T10:15:01Z</time>
      </trkpt>
      <trkpt lat="48.59431" lon="1.97206">
        <ele>156.4</ele>
        <time>2024-10-31T10:15:09Z</time>
      </trkpt>
      <trkpt lat="48.59438" lon="1.97195">
        <ele>157.5</ele>
        <time>2024-10-31T10:15:17Z</time>
      </trkpt>
      <trkpt lat="48.59441" lon="1.97182">
        <ele>157.8</ele>
        <time>2024-10-31T10:15:24Z</time>
      </trkpt>
      <trkpt lat="48.5944" lon="1.97167">
        <ele>157.8</ele>
        <time>2024-10-31T10:15:31Z</time>
      </trkpt>
      <trkpt lat="48.59436" lon="1.97154">
        <ele>158.1</ele>
        <time>2024-10-31T10:15:38Z</time>
      </trkpt>
      <trkpt lat="48.59432" lon="1.97141">
        <ele>158.5</ele>
        <time>2024-10-31T10:15:45Z</time>
      </trkpt>
      <trkpt lat="48.59433" lon="1.97126">
        <ele>158.3</ele>
        <time>2024-10-31T10:15:52Z</time>
      </trkpt>
      <trkpt lat="48.59434" lon="1.97113">
        <ele>158</ele>
        <time>2024-10-31T10:15:58Z</time>
      </trkpt>
      <trkpt lat="48.59433" lon="1.97098">
        <ele>158</ele>
        <time>2024-10-31T10:16:05Z</time>
      </trkpt>
      <trkpt lat="48.59431" lon="1.97084">
        <ele>158</ele>
        <time>2024-10-31T10:16:11Z</time>
      </trkpt>
      <trkpt lat="48.59426" lon="1.97071">
        <ele>157.9</ele>
        <time>2024-10-31T10:16:18Z</time>
      </trkpt>
      <trkpt lat="48.59424" lon="1.97057">
        <ele>157.7</ele>
        <time>2024-10-31T10:16:24Z</time>
      </trkpt>
      <trkpt lat="48.59421" lon="1.97043">
        <ele>157.4</ele>
        <time>2024-10-31T10:16:31Z</time>
      </trkpt>
      <trkpt lat="48.5942" lon="1.97028">
        <ele>156.9</ele>
        <time>2024-10-31T10:16:38Z</time>
      </trkpt>
      <trkpt lat="48.5942" lon="1.97012">
        <ele>156.8</ele>
        <time>2024-10-31T10:16:45Z</time>
      </trkpt>
      <trkpt lat="48.59423" lon="1.96999">
        <ele>156.5</ele>
        <time>2024-10-31T10:16:51Z</time>
      </trkpt>
      <trkpt lat="48.59426" lon="1.96984">
        <ele>156.4</ele>
        <time>2024-10-31T10:16:58Z</time>
      </trkpt>
      <trkpt lat="48.59425" lon="1.9697">
        <ele>156.4</ele>
        <time>2024-10-31T10:17:05Z</time>
      </trkpt>
      <trkpt lat="48.59419" lon="1.96961">
        <ele>156.9</ele>
        <time>2024-10-31T10:17:11Z</time>
      </trkpt>
      <trkpt lat="48.59412" lon="1.96951">
        <ele>156.7</ele>
        <time>2024-10-31T10:17:18Z</time>
      </trkpt>
      <trkpt lat="48.59408" lon="1.96938">
        <ele>156.2</ele>
        <time>2024-10-31T10:17:24Z</time>
      </trkpt>
      <trkpt lat="48.59406" lon="1.96924">
        <ele>155.8</ele>
        <time>2024-10-31T10:17:30Z</time>
      </trkpt>
      <trkpt lat="48.59404" lon="1.9691">
        <ele>155.5</ele>
        <time>2024-10-31T10:17:36Z</time>
      </trkpt>
      <trkpt lat="48.59402" lon="1.96896">
        <ele>155.5</ele>
        <time>2024-10-31T10:17:42Z</time>
      </trkpt>
      <trkpt lat="48.59406" lon="1.96882">
        <ele>155.5</ele>
        <time>2024-10-31T10:17:49Z</time>
      </trkpt>
      <trkpt lat="48.59412" lon="1.9687">
        <ele>155.7</ele>
        <time>2024-10-31T10:18:01Z</time>
      </trkpt>
      <trkpt lat="48.59421" lon="1.96861">
        <ele>155.6</ele>
        <time>2024-10-31T10:18:09Z</time>
      </trkpt>
      <trkpt lat="48.5943" lon="1.96859">
        <ele>154.4</ele>
        <time>2024-10-31T10:18:16Z</time>
      </trkpt>
      <trkpt lat="48.5944" lon="1.96854">
        <ele>153.4</ele>
        <time>2024-10-31T10:18:26Z</time>
      </trkpt>
      <trkpt lat="48.59444" lon="1.96841">
        <ele>153</ele>
        <time>2024-10-31T10:18:33Z</time>
      </trkpt>
      <trkpt lat="48.59443" lon="1.96825">
        <ele>152.5</ele>
        <time>2024-10-31T10:18:40Z</time>
      </trkpt>
      <trkpt lat="48.59439" lon="1.96813">
        <ele>151.7</ele>
        <time>2024-10-31T10:18:48Z</time>
      </trkpt>
      <trkpt lat="48.59435" lon="1.968">
        <ele>150.9</ele>
        <time>2024-10-31T10:18:55Z</time>
      </trkpt>
      <trkpt lat="48.5943" lon="1.96788">
        <ele>149.9</ele>
        <time>2024-10-31T10:19:02Z</time>
      </trkpt>
      <trkpt lat="48.59425" lon="1.96775">
        <ele>148.9</ele>
        <time>2024-10-31T10:19:09Z</time>
      </trkpt>
      <trkpt lat="48.59419" lon="1.96763">
        <ele>148</ele>
        <time>2024-10-31T10:19:16Z</time>
      </trkpt>
      <trkpt lat="48.59415" lon="1.96751">
        <ele>147</ele>
        <time>2024-10-31T10:19:23Z</time>
      </trkpt>
      <trkpt lat="48.59413" lon="1.96737">
        <ele>145.9</ele>
        <time>2024-10-31T10:19:30Z</time>
      </trkpt>
      <trkpt lat="48.59414" lon="1.96722">
        <ele>144.9</ele>
        <time>2024-10-31T10:19:37Z</time>
      </trkpt>
      <trkpt lat="48.59413" lon="1.96709">
        <ele>144.3</ele>
        <time>2024-10-31T10:19:44Z</time>
      </trkpt>
      <trkpt lat="48.59405" lon="1.967">
        <ele>143.5</ele>
        <time>2024-10-31T10:19:55Z</time>
      </trkpt>
      <trkpt lat="48.59396" lon="1.96699">
        <ele>142.8</ele>
        <time>2024-10-31T10:20:10Z</time>
      </trkpt>
      <trkpt lat="48.59391" lon="1.96711">
        <ele>143.3</ele>
        <time>2024-10-31T10:20:22Z</time>
      </trkpt>
      <trkpt lat="48.59385" lon="1.96723">
        <ele>143.4</ele>
        <time>2024-10-31T10:20:30Z</time>
      </trkpt>
      <trkpt lat="48.59377" lon="1.96732">
        <ele>142.6</ele>
        <time>2024-10-31T10:20:38Z</time>
      </trkpt>
      <trkpt lat="48.59373" lon="1.96746">
        <ele>142.8</ele>
        <time>2024-10-31T10:20:45Z</time>
      </trkpt>
      <trkpt lat="48.59369" lon="1.96759">
        <ele>143</ele>
        <time>2024-10-31T10:20:52Z</time>
      </trkpt>
      <trkpt lat="48.59362" lon="1.96771">
        <ele>142.7</ele>
        <time>2024-10-31T10:20:59Z</time>
      </trkpt>
      <trkpt lat="48.59357" lon="1.96783">
        <ele>142.5</ele>
        <time>2024-10-31T10:21:06Z</time>
      </trkpt>
      <trkpt lat="48.59352" lon="1.96795">
        <ele>142.5</ele>
        <time>2024-10-31T10:21:12Z</time>
      </trkpt>
      <trkpt lat="48.59347" lon="1.96808">
        <ele>141.9</ele>
        <time>2024-10-31T10:21:19Z</time>
      </trkpt>
      <trkpt lat="48.59341" lon="1.9682">
        <ele>140.8</ele>
        <time>2024-10-31T10:21:25Z</time>
      </trkpt>
      <trkpt lat="48.59335" lon="1.9683">
        <ele>139.2</ele>
        <time>2024-10-31T10:21:32Z</time>
      </trkpt>
      <trkpt lat="48.59329" lon="1.96841">
        <ele>138.3</ele>
        <time>2024-10-31T10:21:41Z</time>
      </trkpt>
      <trkpt lat="48.59323" lon="1.96852">
        <ele>137.1</ele>
        <time>2024-10-31T10:21:50Z</time>
      </trkpt>
      <trkpt lat="48.59318" lon="1.96864">
        <ele>136.1</ele>
        <time>2024-10-31T10:21:59Z</time>
      </trkpt>
      <trkpt lat="48.59314" lon="1.96876">
        <ele>135</ele>
        <time>2024-10-31T10:22:07Z</time>
      </trkpt>
      <trkpt lat="48.59307" lon="1.96888">
        <ele>133.4</ele>
        <time>2024-10-31T10:22:14Z</time>
      </trkpt>
      <trkpt lat="48.59303" lon="1.96901">
        <ele>132.5</ele>
        <time>2024-10-31T10:22:21Z</time>
      </trkpt>
      <trkpt lat="48.59297" lon="1.96912">
        <ele>131.5</ele>
        <time>2024-10-31T10:22:27Z</time>
      </trkpt>
      <trkpt lat="48.59292" lon="1.96925">
        <ele>130.3</ele>
        <time>2024-10-31T10:22:35Z</time>
      </trkpt>
      <trkpt lat="48.59287" lon="1.96936">
        <ele>128.9</ele>
        <time>2024-10-31T10:22:41Z</time>
      </trkpt>
      <trkpt lat="48.59283" lon="1.96949">
        <ele>127.7</ele>
        <time>2024-10-31T10:22:48Z</time>
      </trkpt>
      <trkpt lat="48.5928" lon="1.96963">
        <ele>126.8</ele>
        <time>2024-10-31T10:23:01Z</time>
      </trkpt>
      <trkpt lat="48.59274" lon="1.96975">
        <ele>125.6</ele>
        <time>2024-10-31T10:23:08Z</time>
      </trkpt>
      <trkpt lat="48.59268" lon="1.96985">
        <ele>124.9</ele>
        <time>2024-10-31T10:23:14Z</time>
      </trkpt>
      <trkpt lat="48.59261" lon="1.96996">
        <ele>123.9</ele>
        <time>2024-10-31T10:23:22Z</time>
      </trkpt>
      <trkpt lat="48.59256" lon="1.97007">
        <ele>123.3</ele>
        <time>2024-10-31T10:23:28Z</time>
      </trkpt>
      <trkpt lat="48.5925" lon="1.97018">
        <ele>122.6</ele>
        <time>2024-10-31T10:23:34Z</time>
      </trkpt>
      <trkpt lat="48.59245" lon="1.9703">
        <ele>122.5</ele>
        <time>2024-10-31T10:23:40Z</time>
      </trkpt>
      <trkpt lat="48.59242" lon="1.97043">
        <ele>122.7</ele>
        <time>2024-10-31T10:23:50Z</time>
      </trkpt>
      <trkpt lat="48.59239" lon="1.97056">
        <ele>122.8</ele>
        <time>2024-10-31T10:24:02Z</time>
      </trkpt>
      <trkpt lat="48.59236" lon="1.97071">
        <ele>122.5</ele>
        <time>2024-10-31T10:24:12Z</time>
      </trkpt>
      <trkpt lat="48.59233" lon="1.97084">
        <ele>122.1</ele>
        <time>2024-10-31T10:24:22Z</time>
      </trkpt>
      <trkpt lat="48.59225" lon="1.97093">
        <ele>121.3</ele>
        <time>2024-10-31T10:24:27Z</time>
      </trkpt>
      <trkpt lat="48.59219" lon="1.97106">
        <ele>120.8</ele>
        <time>2024-10-31T10:24:32Z</time>
      </trkpt>
      <trkpt lat="48.59214" lon="1.97118">
        <ele>120.4</ele>
        <time>2024-10-31T10:24:37Z</time>
      </trkpt>
      <trkpt lat="48.59208" lon="1.97129">
        <ele>119.9</ele>
        <time>2024-10-31T10:24:43Z</time>
      </trkpt>
      <trkpt lat="48.59202" lon="1.9714">
        <ele>119.5</ele>
        <time>2024-10-31T10:24:49Z</time>
      </trkpt>
      <trkpt lat="48.59196" lon="1.97152">
        <ele>119.1</ele>
        <time>2024-10-31T10:25:00Z</time>
      </trkpt>
      <trkpt lat="48.59188" lon="1.97163">
        <ele>118.5</ele>
        <time>2024-10-31T10:25:05Z</time>
      </trkpt>
      <trkpt lat="48.5918" lon="1.97174">
        <ele>117.9</ele>
        <time>2024-10-31T10:25:10Z</time>
      </trkpt>
      <trkpt lat="48.59174" lon="1.97188">
        <ele>117.5</ele>
        <time>2024-10-31T10:25:16Z</time>
      </trkpt>
      <trkpt lat="48.59172" lon="1.97202">
        <ele>117.4</ele>
        <time>2024-10-31T10:25:23Z</time>
      </trkpt>
      <trkpt lat="48.59164" lon="1.97213">
        <ele>116.8</ele>
        <time>2024-10-31T10:25:29Z</time>
      </trkpt>
      <trkpt lat="48.59157" lon="1.97225">
        <ele>116.3</ele>
        <time>2024-10-31T10:25:35Z</time>
      </trkpt>
      <trkpt lat="48.5915" lon="1.97236">
        <ele>115.8</ele>
        <time>2024-10-31T10:25:41Z</time>
      </trkpt>
      <trkpt lat="48.59144" lon="1.97251">
        <ele>115.4</ele>
        <time>2024-10-31T10:25:47Z</time>
      </trkpt>
      <trkpt lat="48.59138" lon="1.97263">
        <ele>115</ele>
        <time>2024-10-31T10:25:54Z</time>
      </trkpt>
      <trkpt lat="48.59133" lon="1.97276">
        <ele>114.8</ele>
        <time>2024-10-31T10:26:01Z</time>
      </trkpt>
      <trkpt lat="48.59128" lon="1.97288">
        <ele>114.6</ele>
        <time>2024-10-31T10:26:06Z</time>
      </trkpt>
      <trkpt lat="48.59122" lon="1.97299">
        <ele>114.4</ele>
        <time>2024-10-31T10:26:12Z</time>
      </trkpt>
      <trkpt lat="48.59114" lon="1.97309">
        <ele>114.1</ele>
        <time>2024-10-31T10:26:18Z</time>
      </trkpt>
      <trkpt lat="48.59108" lon="1.97318">
        <ele>114</ele>
        <time>2024-10-31T10:26:25Z</time>
      </trkpt>
      <trkpt lat="48.59098" lon="1.97319">
        <ele>114</ele>
        <time>2024-10-31T10:26:32Z</time>
      </trkpt>
      <trkpt lat="48.5909" lon="1.97315">
        <ele>114</ele>
        <time>2024-10-31T10:26:39Z</time>
      </trkpt>
      <trkpt lat="48.59084" lon="1.97303">
        <ele>113.9</ele>
        <time>2024-10-31T10:26:46Z</time>
      </trkpt>
      <trkpt lat="48.59076" lon="1.97296">
        <ele>113.5</ele>
        <time>2024-10-31T10:26:54Z</time>
      </trkpt>
      <trkpt lat="48.59066" lon="1.97293">
        <ele>113.2</ele>
        <time>2024-10-31T10:27:01Z</time>
      </trkpt>
      <trkpt lat="48.59058" lon="1.97285">
        <ele>113</ele>
        <time>2024-10-31T10:27:07Z</time>
      </trkpt>
      <trkpt lat="48.5905" lon="1.97277">
        <ele>112.8</ele>
        <time>2024-10-31T10:27:13Z</time>
      </trkpt>
      <trkpt lat="48.59042" lon="1.97273">
        <ele>112.5</ele>
        <time>2024-10-31T10:27:19Z</time>
      </trkpt>
      <trkpt lat="48.59033" lon="1.97267">
        <ele>112.2</ele>
        <time>2024-10-31T10:27:27Z</time>
      </trkpt>
      <trkpt lat="48.59025" lon="1.97261">
        <ele>112</ele>
        <time>2024-10-31T10:27:34Z</time>
      </trkpt>
      <trkpt lat="48.59028" lon="1.97248">
        <ele>112</ele>
        <time>2024-10-31T10:27:43Z</time>
      </trkpt>
      <trkpt lat="48.5903" lon="1.97234">
        <ele>112.1</ele>
        <time>2024-10-31T10:27:50Z</time>
      </trkpt>
      <trkpt lat="48.59033" lon="1.97219">
        <ele>112.3</ele>
        <time>2024-10-31T10:27:59Z</time>
      </trkpt>
      <trkpt lat="48.59034" lon="1.97205">
        <ele>112.7</ele>
        <time>2024-10-31T10:28:05Z</time>
      </trkpt>
      <trkpt lat="48.59033" lon="1.97189">
        <ele>113</ele>
        <time>2024-10-31T10:28:12Z</time>
      </trkpt>
      <trkpt lat="48.59036" lon="1.97175">
        <ele>113</ele>
        <time>2024-10-31T10:28:19Z</time>
      </trkpt>
      <trkpt lat="48.5904" lon="1.97162">
        <ele>113</ele>
        <time>2024-10-31T10:28:25Z</time>
      </trkpt>
      <trkpt lat="48.59043" lon="1.97148">
        <ele>113</ele>
        <time>2024-10-31T10:28:31Z</time>
      </trkpt>
      <trkpt lat="48.59048" lon="1.97134">
        <ele>113</ele>
        <time>2024-10-31T10:28:38Z</time>
      </trkpt>
      <trkpt lat="48.59051" lon="1.97121">
        <ele>113</ele>
        <time>2024-10-31T10:28:45Z</time>
      </trkpt>
      <trkpt lat="48.59053" lon="1.97106">
        <ele>113</ele>
        <time>2024-10-31T10:28:52Z</time>
      </trkpt>
      <trkpt lat="48.59057" lon="1.97092">
        <ele>113</ele>
        <time>2024-10-31T10:29:00Z</time>
      </trkpt>
      <trkpt lat="48.59058" lon="1.97079">
        <ele>113.1</ele>
        <time>2024-10-31T10:29:23Z</time>
      </trkpt>
      <trkpt lat="48.59054" lon="1.97066">
        <ele>113</ele>
        <time>2024-10-31T10:29:40Z</time>
      </trkpt>
      <trkpt lat="48.59059" lon="1.97055">
        <ele>113.1</ele>
        <time>2024-10-31T10:30:00Z</time>
      </trkpt>
      <trkpt lat="48.59062" lon="1.97041">
        <ele>113.2</ele>
        <time>2024-10-31T10:30:08Z</time>
      </trkpt>
      <trkpt lat="48.59065" lon="1.97028">
        <ele>113.3</ele>
        <time>2024-10-31T10:30:15Z</time>
      </trkpt>
      <trkpt lat="48.59068" lon="1.97014">
        <ele>113.2</ele>
        <time>2024-10-31T10:30:23Z</time>
      </trkpt>
      <trkpt lat="48.59071" lon="1.97">
        <ele>113</ele>
        <time>2024-10-31T10:30:30Z</time>
      </trkpt>
      <trkpt lat="48.59074" lon="1.96986">
        <ele>113</ele>
        <time>2024-10-31T10:30:37Z</time>
      </trkpt>
      <trkpt lat="48.59079" lon="1.96974">
        <ele>113</ele>
        <time>2024-10-31T10:30:44Z</time>
      </trkpt>
      <trkpt lat="48.59085" lon="1.96961">
        <ele>113</ele>
        <time>2024-10-31T10:30:52Z</time>
      </trkpt>
      <trkpt lat="48.59088" lon="1.96947">
        <ele>113.2</ele>
        <time>2024-10-31T10:31:00Z</time>
      </trkpt>
      <trkpt lat="48.59091" lon="1.96933">
        <ele>113.3</ele>
        <time>2024-10-31T10:31:06Z</time>
      </trkpt>
      <trkpt lat="48.59096" lon="1.96921">
        <ele>113.4</ele>
        <time>2024-10-31T10:31:12Z</time>
      </trkpt>
      <trkpt lat="48.59099" lon="1.96906">
        <ele>113.3</ele>
        <time>2024-10-31T10:31:20Z</time>
      </trkpt>
      <trkpt lat="48.59103" lon="1.96891">
        <ele>113.1</ele>
        <time>2024-10-31T10:31:27Z</time>
      </trkpt>
      <trkpt lat="48.59106" lon="1.96878">
        <ele>113</ele>
        <time>2024-10-31T10:31:33Z</time>
      </trkpt>
      <trkpt lat="48.59109" lon="1.96865">
        <ele>113</ele>
        <time>2024-10-31T10:31:40Z</time>
      </trkpt>
      <trkpt lat="48.59114" lon="1.96851">
        <ele>113.2</ele>
        <time>2024-10-31T10:31:47Z</time>
      </trkpt>
      <trkpt lat="48.5912" lon="1.9684">
        <ele>113.6</ele>
        <time>2024-10-31T10:31:54Z</time>
      </trkpt>
      <trkpt lat="48.59124" lon="1.96827">
        <ele>113.9</ele>
        <time>2024-10-31T10:32:01Z</time>
      </trkpt>
      <trkpt lat="48.59129" lon="1.96814">
        <ele>114.3</ele>
        <time>2024-10-31T10:32:08Z</time>
      </trkpt>
      <trkpt lat="48.59135" lon="1.96802">
        <ele>114.7</ele>
        <time>2024-10-31T10:32:15Z</time>
      </trkpt>
      <trkpt lat="48.59139" lon="1.96786">
        <ele>115</ele>
        <time>2024-10-31T10:32:22Z</time>
      </trkpt>
      <trkpt lat="48.5914" lon="1.9677">
        <ele>114.8</ele>
        <time>2024-10-31T10:32:27Z</time>
      </trkpt>
      <trkpt lat="48.59143" lon="1.96755">
        <ele>114.6</ele>
        <time>2024-10-31T10:32:33Z</time>
      </trkpt>
      <trkpt lat="48.59147" lon="1.96743">
        <ele>114.8</ele>
        <time>2024-10-31T10:32:39Z</time>
      </trkpt>
      <trkpt lat="48.59151" lon="1.96728">
        <ele>114.9</ele>
        <time>2024-10-31T10:32:46Z</time>
      </trkpt>
      <trkpt lat="48.59151" lon="1.96713">
        <ele>114.9</ele>
        <time>2024-10-31T10:32:52Z</time>
      </trkpt>
      <trkpt lat="48.59152" lon="1.96697">
        <ele>115</ele>
        <time>2024-10-31T10:32:59Z</time>
      </trkpt>
      <trkpt lat="48.59152" lon="1.96683">
        <ele>114.9</ele>
        <time>2024-10-31T10:33:05Z</time>
      </trkpt>
      <trkpt lat="48.59153" lon="1.96669">
        <ele>115</ele>
        <time>2024-10-31T10:33:12Z</time>
      </trkpt>
      <trkpt lat="48.59155" lon="1.96655">
        <ele>115.1</ele>
        <time>2024-10-31T10:33:18Z</time>
      </trkpt>
      <trkpt lat="48.59163" lon="1.96647">
        <ele>115.7</ele>
        <time>2024-10-31T10:33:26Z</time>
      </trkpt>
      <trkpt lat="48.59171" lon="1.96638">
        <ele>116.3</ele>
        <time>2024-10-31T10:33:37Z</time>
      </trkpt>
      <trkpt lat="48.59178" lon="1.96628">
        <ele>116.6</ele>
        <time>2024-10-31T10:33:46Z</time>
      </trkpt>
      <trkpt lat="48.59178" lon="1.96615">
        <ele>116.5</ele>
        <time>2024-10-31T10:34:07Z</time>
      </trkpt>
    </trkseg>
  </trk>
</gpx>